<?xml version="1.0" encoding="UTF-8" standalone="no" ?>
<gpx xmlns="http://www.topografix.com/GPX/1/1" xmlns:xsi="http://www.w3.org/2001/XMLSchema-instance" xsi:schemaLocation="http://www.topografix.com/GPX/1/1 http://www.topografix.com/GPX/1/1/gpx.xsd" version="1.1" creator="VisuGPX - https://www.visugpx.com">
  <metadata>
    <name>Dreuil les Amiens - 17km</name>
    <desc><![CDATA[Walkmeter Marche 25 nov. 2012 10:36:46]]></desc>
  </metadata>
  <trk>
    <name><![CDATA[Dreuil]]></name>
    <trkseg>
      <trkpt lat="49.91346" lon="2.2292">
        <ele>44.8</ele>
        <time>2012-11-25T09:37:31Z</time>
      </trkpt>
      <trkpt lat="49.91351" lon="2.22899">
        <ele>39</ele>
        <time>2012-11-25T09:37:45Z</time>
      </trkpt>
      <trkpt lat="49.9136" lon="2.22883">
        <ele>42</ele>
        <time>2012-11-25T09:38:04Z</time>
      </trkpt>
      <trkpt lat="49.91376" lon="2.22872">
        <ele>35.3</ele>
        <time>2012-11-25T09:38:14Z</time>
      </trkpt>
      <trkpt lat="49.91388" lon="2.22861">
        <ele>36.3</ele>
        <time>2012-11-25T09:38:29Z</time>
      </trkpt>
      <trkpt lat="49.91394" lon="2.22861">
        <ele>36.6</ele>
        <time>2012-11-25T09:38:34Z</time>
      </trkpt>
      <trkpt lat="49.91396" lon="2.22839">
        <ele>35.2</ele>
        <time>2012-11-25T09:38:47Z</time>
      </trkpt>
      <trkpt lat="49.91397" lon="2.22818">
        <ele>37.3</ele>
        <time>2012-11-25T09:38:58Z</time>
      </trkpt>
      <trkpt lat="49.91395" lon="2.2279">
        <ele>36.4</ele>
        <time>2012-11-25T09:39:06Z</time>
      </trkpt>
      <trkpt lat="49.91398" lon="2.22768">
        <ele>40</ele>
        <time>2012-11-25T09:39:20Z</time>
      </trkpt>
      <trkpt lat="49.91397" lon="2.22746">
        <ele>39.3</ele>
        <time>2012-11-25T09:39:29Z</time>
      </trkpt>
      <trkpt lat="49.91398" lon="2.22724">
        <ele>40.8</ele>
        <time>2012-11-25T09:39:38Z</time>
      </trkpt>
      <trkpt lat="49.91397" lon="2.22703">
        <ele>40.2</ele>
        <time>2012-11-25T09:39:47Z</time>
      </trkpt>
      <trkpt lat="49.91396" lon="2.22682">
        <ele>38.6</ele>
        <time>2012-11-25T09:39:55Z</time>
      </trkpt>
      <trkpt lat="49.91398" lon="2.2266">
        <ele>41.3</ele>
        <time>2012-11-25T09:40:06Z</time>
      </trkpt>
      <trkpt lat="49.91407" lon="2.22642">
        <ele>40.8</ele>
        <time>2012-11-25T09:40:16Z</time>
      </trkpt>
      <trkpt lat="49.9141" lon="2.22619">
        <ele>43.9</ele>
        <time>2012-11-25T09:40:25Z</time>
      </trkpt>
      <trkpt lat="49.91409" lon="2.22598">
        <ele>46.8</ele>
        <time>2012-11-25T09:40:35Z</time>
      </trkpt>
      <trkpt lat="49.91406" lon="2.22577">
        <ele>52.1</ele>
        <time>2012-11-25T09:40:45Z</time>
      </trkpt>
      <trkpt lat="49.91404" lon="2.22555">
        <ele>47.9</ele>
        <time>2012-11-25T09:40:56Z</time>
      </trkpt>
      <trkpt lat="49.91403" lon="2.22533">
        <ele>44.6</ele>
        <time>2012-11-25T09:41:08Z</time>
      </trkpt>
      <trkpt lat="49.91401" lon="2.22511">
        <ele>48.9</ele>
        <time>2012-11-25T09:41:17Z</time>
      </trkpt>
      <trkpt lat="49.91399" lon="2.22489">
        <ele>50.9</ele>
        <time>2012-11-25T09:41:29Z</time>
      </trkpt>
      <trkpt lat="49.91397" lon="2.22467">
        <ele>52.3</ele>
        <time>2012-11-25T09:41:38Z</time>
      </trkpt>
      <trkpt lat="49.91395" lon="2.22444">
        <ele>45.4</ele>
        <time>2012-11-25T09:41:50Z</time>
      </trkpt>
      <trkpt lat="49.91394" lon="2.22422">
        <ele>51.6</ele>
        <time>2012-11-25T09:42:02Z</time>
      </trkpt>
      <trkpt lat="49.91394" lon="2.224">
        <ele>54</ele>
        <time>2012-11-25T09:42:11Z</time>
      </trkpt>
      <trkpt lat="49.91393" lon="2.22379">
        <ele>46.8</ele>
        <time>2012-11-25T09:42:26Z</time>
      </trkpt>
      <trkpt lat="49.91393" lon="2.22356">
        <ele>52.2</ele>
        <time>2012-11-25T09:42:49Z</time>
      </trkpt>
      <trkpt lat="49.91396" lon="2.22334">
        <ele>47.9</ele>
        <time>2012-11-25T09:43:02Z</time>
      </trkpt>
      <trkpt lat="49.914" lon="2.22311">
        <ele>53</ele>
        <time>2012-11-25T09:43:12Z</time>
      </trkpt>
      <trkpt lat="49.91407" lon="2.22291">
        <ele>57</ele>
        <time>2012-11-25T09:43:23Z</time>
      </trkpt>
      <trkpt lat="49.91411" lon="2.22269">
        <ele>54.7</ele>
        <time>2012-11-25T09:43:34Z</time>
      </trkpt>
      <trkpt lat="49.91414" lon="2.22248">
        <ele>53.5</ele>
        <time>2012-11-25T09:43:44Z</time>
      </trkpt>
      <trkpt lat="49.91416" lon="2.22226">
        <ele>52.4</ele>
        <time>2012-11-25T09:43:54Z</time>
      </trkpt>
      <trkpt lat="49.91418" lon="2.22204">
        <ele>52.6</ele>
        <time>2012-11-25T09:44:04Z</time>
      </trkpt>
      <trkpt lat="49.91423" lon="2.22181">
        <ele>56.2</ele>
        <time>2012-11-25T09:44:14Z</time>
      </trkpt>
      <trkpt lat="49.91427" lon="2.22161">
        <ele>55.6</ele>
        <time>2012-11-25T09:44:23Z</time>
      </trkpt>
      <trkpt lat="49.9143" lon="2.22139">
        <ele>52.7</ele>
        <time>2012-11-25T09:44:33Z</time>
      </trkpt>
      <trkpt lat="49.91435" lon="2.22117">
        <ele>53</ele>
        <time>2012-11-25T09:44:44Z</time>
      </trkpt>
      <trkpt lat="49.91439" lon="2.22096">
        <ele>52.6</ele>
        <time>2012-11-25T09:44:55Z</time>
      </trkpt>
      <trkpt lat="49.91441" lon="2.22076">
        <ele>51</ele>
        <time>2012-11-25T09:45:04Z</time>
      </trkpt>
      <trkpt lat="49.91444" lon="2.22054">
        <ele>50.4</ele>
        <time>2012-11-25T09:45:14Z</time>
      </trkpt>
      <trkpt lat="49.91445" lon="2.22033">
        <ele>52.2</ele>
        <time>2012-11-25T09:45:24Z</time>
      </trkpt>
      <trkpt lat="49.91446" lon="2.22012">
        <ele>55.5</ele>
        <time>2012-11-25T09:45:33Z</time>
      </trkpt>
      <trkpt lat="49.91448" lon="2.2199">
        <ele>59.5</ele>
        <time>2012-11-25T09:45:43Z</time>
      </trkpt>
      <trkpt lat="49.9145" lon="2.21969">
        <ele>60.2</ele>
        <time>2012-11-25T09:45:53Z</time>
      </trkpt>
      <trkpt lat="49.91455" lon="2.21949">
        <ele>57.6</ele>
        <time>2012-11-25T09:46:03Z</time>
      </trkpt>
      <trkpt lat="49.91457" lon="2.21927">
        <ele>62.2</ele>
        <time>2012-11-25T09:46:13Z</time>
      </trkpt>
      <trkpt lat="49.91459" lon="2.21906">
        <ele>59</ele>
        <time>2012-11-25T09:46:22Z</time>
      </trkpt>
      <trkpt lat="49.91464" lon="2.21886">
        <ele>59.2</ele>
        <time>2012-11-25T09:46:34Z</time>
      </trkpt>
      <trkpt lat="49.91466" lon="2.21864">
        <ele>62.5</ele>
        <time>2012-11-25T09:46:43Z</time>
      </trkpt>
      <trkpt lat="49.91468" lon="2.21843">
        <ele>63.5</ele>
        <time>2012-11-25T09:46:53Z</time>
      </trkpt>
      <trkpt lat="49.91472" lon="2.21822">
        <ele>63.9</ele>
        <time>2012-11-25T09:47:03Z</time>
      </trkpt>
      <trkpt lat="49.91477" lon="2.21801">
        <ele>63.5</ele>
        <time>2012-11-25T09:47:14Z</time>
      </trkpt>
      <trkpt lat="49.9148" lon="2.21779">
        <ele>63.4</ele>
        <time>2012-11-25T09:47:25Z</time>
      </trkpt>
      <trkpt lat="49.91483" lon="2.21757">
        <ele>62.9</ele>
        <time>2012-11-25T09:47:36Z</time>
      </trkpt>
      <trkpt lat="49.91487" lon="2.21736">
        <ele>64.2</ele>
        <time>2012-11-25T09:47:48Z</time>
      </trkpt>
      <trkpt lat="49.91489" lon="2.21715">
        <ele>65.3</ele>
        <time>2012-11-25T09:47:58Z</time>
      </trkpt>
      <trkpt lat="49.9149" lon="2.21693">
        <ele>66.1</ele>
        <time>2012-11-25T09:48:09Z</time>
      </trkpt>
      <trkpt lat="49.91493" lon="2.2167">
        <ele>62.8</ele>
        <time>2012-11-25T09:48:21Z</time>
      </trkpt>
      <trkpt lat="49.91494" lon="2.21649">
        <ele>60.1</ele>
        <time>2012-11-25T09:48:31Z</time>
      </trkpt>
      <trkpt lat="49.91496" lon="2.21626">
        <ele>62.5</ele>
        <time>2012-11-25T09:48:41Z</time>
      </trkpt>
      <trkpt lat="49.91499" lon="2.21604">
        <ele>61.4</ele>
        <time>2012-11-25T09:48:51Z</time>
      </trkpt>
      <trkpt lat="49.91501" lon="2.21583">
        <ele>63</ele>
        <time>2012-11-25T09:49:01Z</time>
      </trkpt>
      <trkpt lat="49.91505" lon="2.21559">
        <ele>61.5</ele>
        <time>2012-11-25T09:49:11Z</time>
      </trkpt>
      <trkpt lat="49.91513" lon="2.2154">
        <ele>61.1</ele>
        <time>2012-11-25T09:49:24Z</time>
      </trkpt>
      <trkpt lat="49.91519" lon="2.21521">
        <ele>63.2</ele>
        <time>2012-11-25T09:49:35Z</time>
      </trkpt>
      <trkpt lat="49.91525" lon="2.215">
        <ele>62.9</ele>
        <time>2012-11-25T09:49:46Z</time>
      </trkpt>
      <trkpt lat="49.91529" lon="2.21479">
        <ele>62.7</ele>
        <time>2012-11-25T09:49:56Z</time>
      </trkpt>
      <trkpt lat="49.91535" lon="2.21458">
        <ele>62.9</ele>
        <time>2012-11-25T09:50:08Z</time>
      </trkpt>
      <trkpt lat="49.9154" lon="2.21438">
        <ele>62</ele>
        <time>2012-11-25T09:50:18Z</time>
      </trkpt>
      <trkpt lat="49.91546" lon="2.21417">
        <ele>60</ele>
        <time>2012-11-25T09:50:28Z</time>
      </trkpt>
      <trkpt lat="49.91549" lon="2.21397">
        <ele>59.9</ele>
        <time>2012-11-25T09:50:37Z</time>
      </trkpt>
      <trkpt lat="49.91553" lon="2.21375">
        <ele>62.3</ele>
        <time>2012-11-25T09:50:48Z</time>
      </trkpt>
      <trkpt lat="49.91557" lon="2.21354">
        <ele>60.2</ele>
        <time>2012-11-25T09:50:59Z</time>
      </trkpt>
      <trkpt lat="49.91561" lon="2.21334">
        <ele>61.3</ele>
        <time>2012-11-25T09:51:08Z</time>
      </trkpt>
      <trkpt lat="49.91564" lon="2.2131">
        <ele>62.6</ele>
        <time>2012-11-25T09:51:19Z</time>
      </trkpt>
      <trkpt lat="49.91566" lon="2.21289">
        <ele>63.1</ele>
        <time>2012-11-25T09:51:29Z</time>
      </trkpt>
      <trkpt lat="49.91567" lon="2.21267">
        <ele>63.6</ele>
        <time>2012-11-25T09:51:40Z</time>
      </trkpt>
      <trkpt lat="49.91564" lon="2.21246">
        <ele>64.1</ele>
        <time>2012-11-25T09:51:49Z</time>
      </trkpt>
      <trkpt lat="49.91557" lon="2.21227">
        <ele>64.7</ele>
        <time>2012-11-25T09:52:01Z</time>
      </trkpt>
      <trkpt lat="49.91545" lon="2.21211">
        <ele>65.4</ele>
        <time>2012-11-25T09:52:17Z</time>
      </trkpt>
      <trkpt lat="49.91534" lon="2.21198">
        <ele>63.2</ele>
        <time>2012-11-25T09:52:27Z</time>
      </trkpt>
      <trkpt lat="49.91522" lon="2.21186">
        <ele>59.4</ele>
        <time>2012-11-25T09:52:36Z</time>
      </trkpt>
      <trkpt lat="49.91508" lon="2.21178">
        <ele>57</ele>
        <time>2012-11-25T09:52:47Z</time>
      </trkpt>
      <trkpt lat="49.91494" lon="2.21173">
        <ele>62.5</ele>
        <time>2012-11-25T09:52:58Z</time>
      </trkpt>
      <trkpt lat="49.91482" lon="2.21163">
        <ele>58.2</ele>
        <time>2012-11-25T09:53:09Z</time>
      </trkpt>
      <trkpt lat="49.91469" lon="2.21154">
        <ele>57</ele>
        <time>2012-11-25T09:53:19Z</time>
      </trkpt>
      <trkpt lat="49.91463" lon="2.21134">
        <ele>59.5</ele>
        <time>2012-11-25T09:53:31Z</time>
      </trkpt>
      <trkpt lat="49.91472" lon="2.21114">
        <ele>61.3</ele>
        <time>2012-11-25T09:53:40Z</time>
      </trkpt>
      <trkpt lat="49.91481" lon="2.21095">
        <ele>59.6</ele>
        <time>2012-11-25T09:53:51Z</time>
      </trkpt>
      <trkpt lat="49.91494" lon="2.21084">
        <ele>63</ele>
        <time>2012-11-25T09:54:03Z</time>
      </trkpt>
      <trkpt lat="49.91507" lon="2.21079">
        <ele>62.6</ele>
        <time>2012-11-25T09:54:11Z</time>
      </trkpt>
      <trkpt lat="49.9152" lon="2.21071">
        <ele>65</ele>
        <time>2012-11-25T09:54:21Z</time>
      </trkpt>
      <trkpt lat="49.91534" lon="2.21062">
        <ele>67</ele>
        <time>2012-11-25T09:54:31Z</time>
      </trkpt>
      <trkpt lat="49.91548" lon="2.21054">
        <ele>69.2</ele>
        <time>2012-11-25T09:54:42Z</time>
      </trkpt>
      <trkpt lat="49.91561" lon="2.21047">
        <ele>67</ele>
        <time>2012-11-25T09:54:52Z</time>
      </trkpt>
      <trkpt lat="49.91573" lon="2.21034">
        <ele>61.9</ele>
        <time>2012-11-25T09:55:04Z</time>
      </trkpt>
      <trkpt lat="49.91585" lon="2.21025">
        <ele>66.3</ele>
        <time>2012-11-25T09:55:14Z</time>
      </trkpt>
      <trkpt lat="49.91597" lon="2.21012">
        <ele>64.8</ele>
        <time>2012-11-25T09:55:26Z</time>
      </trkpt>
      <trkpt lat="49.91606" lon="2.20995">
        <ele>63.1</ele>
        <time>2012-11-25T09:55:37Z</time>
      </trkpt>
      <trkpt lat="49.91617" lon="2.20982">
        <ele>62.7</ele>
        <time>2012-11-25T09:55:46Z</time>
      </trkpt>
      <trkpt lat="49.91629" lon="2.2097">
        <ele>62.4</ele>
        <time>2012-11-25T09:55:56Z</time>
      </trkpt>
      <trkpt lat="49.91639" lon="2.20956">
        <ele>62</ele>
        <time>2012-11-25T09:56:06Z</time>
      </trkpt>
      <trkpt lat="49.91649" lon="2.2094">
        <ele>61.7</ele>
        <time>2012-11-25T09:56:16Z</time>
      </trkpt>
      <trkpt lat="49.91658" lon="2.20923">
        <ele>61.9</ele>
        <time>2012-11-25T09:56:27Z</time>
      </trkpt>
      <trkpt lat="49.9167" lon="2.20909">
        <ele>65.8</ele>
        <time>2012-11-25T09:56:38Z</time>
      </trkpt>
      <trkpt lat="49.9168" lon="2.20895">
        <ele>64.6</ele>
        <time>2012-11-25T09:56:48Z</time>
      </trkpt>
      <trkpt lat="49.91688" lon="2.20877">
        <ele>65.8</ele>
        <time>2012-11-25T09:56:57Z</time>
      </trkpt>
      <trkpt lat="49.91698" lon="2.20859">
        <ele>63.5</ele>
        <time>2012-11-25T09:57:06Z</time>
      </trkpt>
      <trkpt lat="49.91707" lon="2.20843">
        <ele>62.3</ele>
        <time>2012-11-25T09:57:15Z</time>
      </trkpt>
      <trkpt lat="49.91716" lon="2.20826">
        <ele>61.1</ele>
        <time>2012-11-25T09:57:26Z</time>
      </trkpt>
      <trkpt lat="49.91724" lon="2.20809">
        <ele>59.8</ele>
        <time>2012-11-25T09:57:37Z</time>
      </trkpt>
      <trkpt lat="49.91733" lon="2.20791">
        <ele>58.3</ele>
        <time>2012-11-25T09:57:48Z</time>
      </trkpt>
      <trkpt lat="49.91743" lon="2.20772">
        <ele>56.9</ele>
        <time>2012-11-25T09:57:57Z</time>
      </trkpt>
      <trkpt lat="49.91753" lon="2.20755">
        <ele>61.3</ele>
        <time>2012-11-25T09:58:08Z</time>
      </trkpt>
      <trkpt lat="49.91763" lon="2.20741">
        <ele>61.7</ele>
        <time>2012-11-25T09:58:18Z</time>
      </trkpt>
      <trkpt lat="49.91774" lon="2.20726">
        <ele>62.1</ele>
        <time>2012-11-25T09:58:27Z</time>
      </trkpt>
      <trkpt lat="49.91782" lon="2.20709">
        <ele>62.5</ele>
        <time>2012-11-25T09:58:37Z</time>
      </trkpt>
      <trkpt lat="49.91793" lon="2.20694">
        <ele>62.9</ele>
        <time>2012-11-25T09:58:46Z</time>
      </trkpt>
      <trkpt lat="49.91803" lon="2.20676">
        <ele>63.3</ele>
        <time>2012-11-25T09:58:56Z</time>
      </trkpt>
      <trkpt lat="49.91812" lon="2.20659">
        <ele>63.8</ele>
        <time>2012-11-25T09:59:07Z</time>
      </trkpt>
      <trkpt lat="49.91825" lon="2.2064">
        <ele>64.2</ele>
        <time>2012-11-25T09:59:17Z</time>
      </trkpt>
      <trkpt lat="49.91835" lon="2.2062">
        <ele>64.7</ele>
        <time>2012-11-25T09:59:30Z</time>
      </trkpt>
      <trkpt lat="49.91844" lon="2.20605">
        <ele>59.2</ele>
        <time>2012-11-25T09:59:40Z</time>
      </trkpt>
      <trkpt lat="49.91855" lon="2.20588">
        <ele>55.9</ele>
        <time>2012-11-25T09:59:51Z</time>
      </trkpt>
      <trkpt lat="49.91863" lon="2.2057">
        <ele>61</ele>
        <time>2012-11-25T10:00:01Z</time>
      </trkpt>
      <trkpt lat="49.91872" lon="2.20553">
        <ele>58</ele>
        <time>2012-11-25T10:00:12Z</time>
      </trkpt>
      <trkpt lat="49.9188" lon="2.20533">
        <ele>55.5</ele>
        <time>2012-11-25T10:00:21Z</time>
      </trkpt>
      <trkpt lat="49.91889" lon="2.20519">
        <ele>55.7</ele>
        <time>2012-11-25T10:00:29Z</time>
      </trkpt>
      <trkpt lat="49.91897" lon="2.20514">
        <ele>57.1</ele>
        <time>2012-11-25T10:00:35Z</time>
      </trkpt>
      <trkpt lat="49.91905" lon="2.20496">
        <ele>53.9</ele>
        <time>2012-11-25T10:00:46Z</time>
      </trkpt>
      <trkpt lat="49.91914" lon="2.20477">
        <ele>56.7</ele>
        <time>2012-11-25T10:00:56Z</time>
      </trkpt>
      <trkpt lat="49.91922" lon="2.20459">
        <ele>57.1</ele>
        <time>2012-11-25T10:01:07Z</time>
      </trkpt>
      <trkpt lat="49.91929" lon="2.20439">
        <ele>54.9</ele>
        <time>2012-11-25T10:01:16Z</time>
      </trkpt>
      <trkpt lat="49.91935" lon="2.20419">
        <ele>52.8</ele>
        <time>2012-11-25T10:01:25Z</time>
      </trkpt>
      <trkpt lat="49.91943" lon="2.204">
        <ele>57.2</ele>
        <time>2012-11-25T10:01:35Z</time>
      </trkpt>
      <trkpt lat="49.91949" lon="2.20379">
        <ele>58</ele>
        <time>2012-11-25T10:01:46Z</time>
      </trkpt>
      <trkpt lat="49.91957" lon="2.20361">
        <ele>58.8</ele>
        <time>2012-11-25T10:01:57Z</time>
      </trkpt>
      <trkpt lat="49.91965" lon="2.20342">
        <ele>59.5</ele>
        <time>2012-11-25T10:02:07Z</time>
      </trkpt>
      <trkpt lat="49.91976" lon="2.20319">
        <ele>58.2</ele>
        <time>2012-11-25T10:02:18Z</time>
      </trkpt>
      <trkpt lat="49.9198" lon="2.20299">
        <ele>56</ele>
        <time>2012-11-25T10:02:29Z</time>
      </trkpt>
      <trkpt lat="49.91989" lon="2.20281">
        <ele>58.7</ele>
        <time>2012-11-25T10:02:40Z</time>
      </trkpt>
      <trkpt lat="49.91997" lon="2.20262">
        <ele>56.2</ele>
        <time>2012-11-25T10:02:50Z</time>
      </trkpt>
      <trkpt lat="49.92004" lon="2.20243">
        <ele>57.6</ele>
        <time>2012-11-25T10:03:01Z</time>
      </trkpt>
      <trkpt lat="49.92011" lon="2.20225">
        <ele>58.8</ele>
        <time>2012-11-25T10:03:11Z</time>
      </trkpt>
      <trkpt lat="49.92019" lon="2.20207">
        <ele>60</ele>
        <time>2012-11-25T10:03:21Z</time>
      </trkpt>
      <trkpt lat="49.92026" lon="2.20189">
        <ele>56.5</ele>
        <time>2012-11-25T10:03:32Z</time>
      </trkpt>
      <trkpt lat="49.92034" lon="2.20171">
        <ele>55.5</ele>
        <time>2012-11-25T10:03:43Z</time>
      </trkpt>
      <trkpt lat="49.92043" lon="2.20154">
        <ele>54.6</ele>
        <time>2012-11-25T10:03:53Z</time>
      </trkpt>
      <trkpt lat="49.92052" lon="2.20138">
        <ele>53.7</ele>
        <time>2012-11-25T10:04:03Z</time>
      </trkpt>
      <trkpt lat="49.9206" lon="2.20121">
        <ele>52.8</ele>
        <time>2012-11-25T10:04:14Z</time>
      </trkpt>
      <trkpt lat="49.9207" lon="2.20105">
        <ele>52.4</ele>
        <time>2012-11-25T10:04:25Z</time>
      </trkpt>
      <trkpt lat="49.9208" lon="2.2009">
        <ele>57.2</ele>
        <time>2012-11-25T10:04:36Z</time>
      </trkpt>
      <trkpt lat="49.9209" lon="2.20076">
        <ele>56</ele>
        <time>2012-11-25T10:04:47Z</time>
      </trkpt>
      <trkpt lat="49.921" lon="2.20059">
        <ele>54.8</ele>
        <time>2012-11-25T10:04:57Z</time>
      </trkpt>
      <trkpt lat="49.9211" lon="2.20044">
        <ele>53.5</ele>
        <time>2012-11-25T10:05:08Z</time>
      </trkpt>
      <trkpt lat="49.92119" lon="2.20026">
        <ele>51.5</ele>
        <time>2012-11-25T10:05:18Z</time>
      </trkpt>
      <trkpt lat="49.92127" lon="2.20005">
        <ele>51.7</ele>
        <time>2012-11-25T10:05:29Z</time>
      </trkpt>
      <trkpt lat="49.92137" lon="2.19991">
        <ele>52.8</ele>
        <time>2012-11-25T10:05:40Z</time>
      </trkpt>
      <trkpt lat="49.92146" lon="2.19976">
        <ele>50.6</ele>
        <time>2012-11-25T10:06:00Z</time>
      </trkpt>
      <trkpt lat="49.92156" lon="2.19958">
        <ele>49.6</ele>
        <time>2012-11-25T10:06:09Z</time>
      </trkpt>
      <trkpt lat="49.92163" lon="2.1994">
        <ele>54.4</ele>
        <time>2012-11-25T10:06:20Z</time>
      </trkpt>
      <trkpt lat="49.92171" lon="2.19919">
        <ele>48.2</ele>
        <time>2012-11-25T10:06:30Z</time>
      </trkpt>
      <trkpt lat="49.92186" lon="2.19917">
        <ele>45.8</ele>
        <time>2012-11-25T10:06:44Z</time>
      </trkpt>
      <trkpt lat="49.922" lon="2.19914">
        <ele>45.6</ele>
        <time>2012-11-25T10:06:56Z</time>
      </trkpt>
      <trkpt lat="49.92215" lon="2.19918">
        <ele>43.2</ele>
        <time>2012-11-25T10:07:06Z</time>
      </trkpt>
      <trkpt lat="49.92228" lon="2.19924">
        <ele>44.4</ele>
        <time>2012-11-25T10:07:16Z</time>
      </trkpt>
      <trkpt lat="49.92242" lon="2.19931">
        <ele>48.7</ele>
        <time>2012-11-25T10:07:26Z</time>
      </trkpt>
      <trkpt lat="49.92255" lon="2.19938">
        <ele>52</ele>
        <time>2012-11-25T10:07:35Z</time>
      </trkpt>
      <trkpt lat="49.9227" lon="2.19941">
        <ele>53.5</ele>
        <time>2012-11-25T10:07:45Z</time>
      </trkpt>
      <trkpt lat="49.92285" lon="2.19945">
        <ele>50.3</ele>
        <time>2012-11-25T10:07:56Z</time>
      </trkpt>
      <trkpt lat="49.92298" lon="2.19952">
        <ele>50.3</ele>
        <time>2012-11-25T10:08:06Z</time>
      </trkpt>
      <trkpt lat="49.92311" lon="2.19963">
        <ele>48.2</ele>
        <time>2012-11-25T10:08:16Z</time>
      </trkpt>
      <trkpt lat="49.92324" lon="2.19974">
        <ele>44.3</ele>
        <time>2012-11-25T10:08:27Z</time>
      </trkpt>
      <trkpt lat="49.92336" lon="2.19986">
        <ele>39.2</ele>
        <time>2012-11-25T10:08:38Z</time>
      </trkpt>
      <trkpt lat="49.92348" lon="2.19996">
        <ele>41.9</ele>
        <time>2012-11-25T10:08:50Z</time>
      </trkpt>
      <trkpt lat="49.92359" lon="2.20008">
        <ele>45.9</ele>
        <time>2012-11-25T10:09:01Z</time>
      </trkpt>
      <trkpt lat="49.9237" lon="2.20021">
        <ele>42.4</ele>
        <time>2012-11-25T10:09:11Z</time>
      </trkpt>
      <trkpt lat="49.92382" lon="2.20034">
        <ele>44.2</ele>
        <time>2012-11-25T10:09:21Z</time>
      </trkpt>
      <trkpt lat="49.92391" lon="2.20051">
        <ele>37.2</ele>
        <time>2012-11-25T10:09:32Z</time>
      </trkpt>
      <trkpt lat="49.92394" lon="2.20073">
        <ele>38.4</ele>
        <time>2012-11-25T10:09:43Z</time>
      </trkpt>
      <trkpt lat="49.92396" lon="2.20095">
        <ele>36</ele>
        <time>2012-11-25T10:09:53Z</time>
      </trkpt>
      <trkpt lat="49.924" lon="2.20119">
        <ele>33.2</ele>
        <time>2012-11-25T10:10:04Z</time>
      </trkpt>
      <trkpt lat="49.92404" lon="2.20139">
        <ele>35</ele>
        <time>2012-11-25T10:10:14Z</time>
      </trkpt>
      <trkpt lat="49.92414" lon="2.20161">
        <ele>38.7</ele>
        <time>2012-11-25T10:10:32Z</time>
      </trkpt>
      <trkpt lat="49.92429" lon="2.2017">
        <ele>31</ele>
        <time>2012-11-25T10:10:43Z</time>
      </trkpt>
      <trkpt lat="49.92444" lon="2.20173">
        <ele>23.1</ele>
        <time>2012-11-25T10:10:55Z</time>
      </trkpt>
      <trkpt lat="49.92458" lon="2.20177">
        <ele>18.3</ele>
        <time>2012-11-25T10:11:07Z</time>
      </trkpt>
      <trkpt lat="49.92473" lon="2.20175">
        <ele>14.4</ele>
        <time>2012-11-25T10:11:19Z</time>
      </trkpt>
      <trkpt lat="49.92488" lon="2.20178">
        <ele>18.8</ele>
        <time>2012-11-25T10:11:27Z</time>
      </trkpt>
      <trkpt lat="49.92501" lon="2.2018">
        <ele>21.1</ele>
        <time>2012-11-25T10:11:36Z</time>
      </trkpt>
      <trkpt lat="49.92515" lon="2.20184">
        <ele>14.1</ele>
        <time>2012-11-25T10:11:51Z</time>
      </trkpt>
      <trkpt lat="49.92531" lon="2.20183">
        <ele>10.1</ele>
        <time>2012-11-25T10:12:06Z</time>
      </trkpt>
      <trkpt lat="49.92546" lon="2.20183">
        <ele>12.6</ele>
        <time>2012-11-25T10:12:18Z</time>
      </trkpt>
      <trkpt lat="49.9256" lon="2.20187">
        <ele>20.3</ele>
        <time>2012-11-25T10:12:33Z</time>
      </trkpt>
      <trkpt lat="49.92561" lon="2.20189">
        <ele>21.3</ele>
        <time>2012-11-25T10:12:35Z</time>
      </trkpt>
      <trkpt lat="49.92577" lon="2.20175">
        <ele>17.8</ele>
        <time>2012-11-25T10:12:47Z</time>
      </trkpt>
      <trkpt lat="49.92592" lon="2.20167">
        <ele>15.6</ele>
        <time>2012-11-25T10:12:50Z</time>
      </trkpt>
      <trkpt lat="49.92607" lon="2.2017">
        <ele>11.8</ele>
        <time>2012-11-25T10:12:56Z</time>
      </trkpt>
      <trkpt lat="49.92622" lon="2.20169">
        <ele>12.1</ele>
        <time>2012-11-25T10:13:06Z</time>
      </trkpt>
      <trkpt lat="49.92635" lon="2.20159">
        <ele>14.1</ele>
        <time>2012-11-25T10:13:17Z</time>
      </trkpt>
      <trkpt lat="49.92652" lon="2.2015">
        <ele>12.7</ele>
        <time>2012-11-25T10:13:32Z</time>
      </trkpt>
      <trkpt lat="49.92663" lon="2.20137">
        <ele>1.9</ele>
        <time>2012-11-25T10:13:42Z</time>
      </trkpt>
      <trkpt lat="49.92674" lon="2.201">
        <ele>5.9</ele>
        <time>2012-11-25T10:13:52Z</time>
      </trkpt>
      <trkpt lat="49.92684" lon="2.20084">
        <ele>4.1</ele>
        <time>2012-11-25T10:14:13Z</time>
      </trkpt>
      <trkpt lat="49.92692" lon="2.20066">
        <ele>8.2</ele>
        <time>2012-11-25T10:14:26Z</time>
      </trkpt>
      <trkpt lat="49.92707" lon="2.20055">
        <ele>11.4</ele>
        <time>2012-11-25T10:14:36Z</time>
      </trkpt>
      <trkpt lat="49.92723" lon="2.20049">
        <ele>11.5</ele>
        <time>2012-11-25T10:14:41Z</time>
      </trkpt>
      <trkpt lat="49.92734" lon="2.20032">
        <ele>12.5</ele>
        <time>2012-11-25T10:14:47Z</time>
      </trkpt>
      <trkpt lat="49.92748" lon="2.20029">
        <ele>16.4</ele>
        <time>2012-11-25T10:14:55Z</time>
      </trkpt>
      <trkpt lat="49.92759" lon="2.20016">
        <ele>20.8</ele>
        <time>2012-11-25T10:15:05Z</time>
      </trkpt>
      <trkpt lat="49.92769" lon="2.20002">
        <ele>22.8</ele>
        <time>2012-11-25T10:15:15Z</time>
      </trkpt>
      <trkpt lat="49.92782" lon="2.19989">
        <ele>18.5</ele>
        <time>2012-11-25T10:15:24Z</time>
      </trkpt>
      <trkpt lat="49.92791" lon="2.19999">
        <ele>20.4</ele>
        <time>2012-11-25T10:15:33Z</time>
      </trkpt>
      <trkpt lat="49.928" lon="2.20018">
        <ele>13.3</ele>
        <time>2012-11-25T10:15:47Z</time>
      </trkpt>
      <trkpt lat="49.92812" lon="2.20031">
        <ele>7.3</ele>
        <time>2012-11-25T10:16:02Z</time>
      </trkpt>
      <trkpt lat="49.92826" lon="2.20037">
        <ele>2.6</ele>
        <time>2012-11-25T10:16:12Z</time>
      </trkpt>
      <trkpt lat="49.92839" lon="2.20048">
        <ele>6.8</ele>
        <time>2012-11-25T10:16:20Z</time>
      </trkpt>
      <trkpt lat="49.92854" lon="2.20046">
        <ele>8.8</ele>
        <time>2012-11-25T10:16:24Z</time>
      </trkpt>
      <trkpt lat="49.92869" lon="2.20044">
        <ele>14.3</ele>
        <time>2012-11-25T10:16:38Z</time>
      </trkpt>
      <trkpt lat="49.92883" lon="2.20051">
        <ele>12.1</ele>
        <time>2012-11-25T10:16:46Z</time>
      </trkpt>
      <trkpt lat="49.92898" lon="2.20051">
        <ele>10.8</ele>
        <time>2012-11-25T10:16:55Z</time>
      </trkpt>
      <trkpt lat="49.92911" lon="2.20059">
        <ele>9.4</ele>
        <time>2012-11-25T10:17:09Z</time>
      </trkpt>
      <trkpt lat="49.92923" lon="2.20073">
        <ele>2.4</ele>
        <time>2012-11-25T10:17:22Z</time>
      </trkpt>
      <trkpt lat="49.92933" lon="2.20087">
        <ele>0.1</ele>
        <time>2012-11-25T10:17:30Z</time>
      </trkpt>
      <trkpt lat="49.92945" lon="2.20098">
        <ele>1.8</ele>
        <time>2012-11-25T10:17:43Z</time>
      </trkpt>
      <trkpt lat="49.92958" lon="2.20108">
        <ele>4</ele>
        <time>2012-11-25T10:17:50Z</time>
      </trkpt>
      <trkpt lat="49.92971" lon="2.20118">
        <ele>6.5</ele>
        <time>2012-11-25T10:17:58Z</time>
      </trkpt>
      <trkpt lat="49.92984" lon="2.20129">
        <ele>5.4</ele>
        <time>2012-11-25T10:18:05Z</time>
      </trkpt>
      <trkpt lat="49.92998" lon="2.20131">
        <ele>8.2</ele>
        <time>2012-11-25T10:18:15Z</time>
      </trkpt>
      <trkpt lat="49.93007" lon="2.20112">
        <ele>16.6</ele>
        <time>2012-11-25T10:18:25Z</time>
      </trkpt>
      <trkpt lat="49.93015" lon="2.20094">
        <ele>11.2</ele>
        <time>2012-11-25T10:18:36Z</time>
      </trkpt>
      <trkpt lat="49.93022" lon="2.20076">
        <ele>7.9</ele>
        <time>2012-11-25T10:18:46Z</time>
      </trkpt>
      <trkpt lat="49.93031" lon="2.20056">
        <ele>3.2</ele>
        <time>2012-11-25T10:18:56Z</time>
      </trkpt>
      <trkpt lat="49.93038" lon="2.20039">
        <ele>1.9</ele>
        <time>2012-11-25T10:19:06Z</time>
      </trkpt>
      <trkpt lat="49.93047" lon="2.20021">
        <ele>2.8</ele>
        <time>2012-11-25T10:19:16Z</time>
      </trkpt>
      <trkpt lat="49.93055" lon="2.20002">
        <ele>0.3</ele>
        <time>2012-11-25T10:19:27Z</time>
      </trkpt>
      <trkpt lat="49.93064" lon="2.19976">
        <ele>0.6</ele>
        <time>2012-11-25T10:19:35Z</time>
      </trkpt>
      <trkpt lat="49.93067" lon="2.19954">
        <ele>3.9</ele>
        <time>2012-11-25T10:19:46Z</time>
      </trkpt>
      <trkpt lat="49.93071" lon="2.19933">
        <ele>6.7</ele>
        <time>2012-11-25T10:19:56Z</time>
      </trkpt>
      <trkpt lat="49.93077" lon="2.19912">
        <ele>8.5</ele>
        <time>2012-11-25T10:20:06Z</time>
      </trkpt>
      <trkpt lat="49.93081" lon="2.1989">
        <ele>7.3</ele>
        <time>2012-11-25T10:20:16Z</time>
      </trkpt>
      <trkpt lat="49.93084" lon="2.19869">
        <ele>5.8</ele>
        <time>2012-11-25T10:20:28Z</time>
      </trkpt>
      <trkpt lat="49.93087" lon="2.19845">
        <ele>4.5</ele>
        <time>2012-11-25T10:20:39Z</time>
      </trkpt>
      <trkpt lat="49.93088" lon="2.1982">
        <ele>9.2</ele>
        <time>2012-11-25T10:20:48Z</time>
      </trkpt>
      <trkpt lat="49.93091" lon="2.19799">
        <ele>7.8</ele>
        <time>2012-11-25T10:20:58Z</time>
      </trkpt>
      <trkpt lat="49.93098" lon="2.19781">
        <ele>6</ele>
        <time>2012-11-25T10:21:10Z</time>
      </trkpt>
      <trkpt lat="49.93102" lon="2.19761">
        <ele>9</ele>
        <time>2012-11-25T10:21:20Z</time>
      </trkpt>
      <trkpt lat="49.93108" lon="2.1974">
        <ele>9.5</ele>
        <time>2012-11-25T10:21:30Z</time>
      </trkpt>
      <trkpt lat="49.93113" lon="2.1972">
        <ele>8</ele>
        <time>2012-11-25T10:21:41Z</time>
      </trkpt>
      <trkpt lat="49.93115" lon="2.19699">
        <ele>7.1</ele>
        <time>2012-11-25T10:21:48Z</time>
      </trkpt>
      <trkpt lat="49.93118" lon="2.19676">
        <ele>6.2</ele>
        <time>2012-11-25T10:21:56Z</time>
      </trkpt>
      <trkpt lat="49.93123" lon="2.19652">
        <ele>10.9</ele>
        <time>2012-11-25T10:22:07Z</time>
      </trkpt>
      <trkpt lat="49.93126" lon="2.1963">
        <ele>13.2</ele>
        <time>2012-11-25T10:22:19Z</time>
      </trkpt>
      <trkpt lat="49.93132" lon="2.19605">
        <ele>11.7</ele>
        <time>2012-11-25T10:22:29Z</time>
      </trkpt>
      <trkpt lat="49.93133" lon="2.19583">
        <ele>15.6</ele>
        <time>2012-11-25T10:22:40Z</time>
      </trkpt>
      <trkpt lat="49.93133" lon="2.19562">
        <ele>18</ele>
        <time>2012-11-25T10:22:50Z</time>
      </trkpt>
      <trkpt lat="49.93135" lon="2.19539">
        <ele>16.6</ele>
        <time>2012-11-25T10:23:01Z</time>
      </trkpt>
      <trkpt lat="49.9314" lon="2.19518">
        <ele>15.2</ele>
        <time>2012-11-25T10:23:12Z</time>
      </trkpt>
      <trkpt lat="49.93148" lon="2.19499">
        <ele>6.6</ele>
        <time>2012-11-25T10:23:24Z</time>
      </trkpt>
      <trkpt lat="49.93154" lon="2.19479">
        <ele>8.9</ele>
        <time>2012-11-25T10:23:36Z</time>
      </trkpt>
      <trkpt lat="49.93159" lon="2.19459">
        <ele>11</ele>
        <time>2012-11-25T10:23:46Z</time>
      </trkpt>
      <trkpt lat="49.93166" lon="2.19439">
        <ele>13.3</ele>
        <time>2012-11-25T10:23:57Z</time>
      </trkpt>
      <trkpt lat="49.93171" lon="2.19418">
        <ele>14</ele>
        <time>2012-11-25T10:24:04Z</time>
      </trkpt>
      <trkpt lat="49.93178" lon="2.19399">
        <ele>12.5</ele>
        <time>2012-11-25T10:24:14Z</time>
      </trkpt>
      <trkpt lat="49.93182" lon="2.19377">
        <ele>11.2</ele>
        <time>2012-11-25T10:24:23Z</time>
      </trkpt>
      <trkpt lat="49.93189" lon="2.19358">
        <ele>11.6</ele>
        <time>2012-11-25T10:24:34Z</time>
      </trkpt>
      <trkpt lat="49.93197" lon="2.1934">
        <ele>12.3</ele>
        <time>2012-11-25T10:24:46Z</time>
      </trkpt>
      <trkpt lat="49.93205" lon="2.19322">
        <ele>13.8</ele>
        <time>2012-11-25T10:24:56Z</time>
      </trkpt>
      <trkpt lat="49.93212" lon="2.19304">
        <ele>16</ele>
        <time>2012-11-25T10:25:06Z</time>
      </trkpt>
      <trkpt lat="49.93218" lon="2.19284">
        <ele>11.6</ele>
        <time>2012-11-25T10:25:17Z</time>
      </trkpt>
      <trkpt lat="49.93225" lon="2.19266">
        <ele>6.8</ele>
        <time>2012-11-25T10:25:28Z</time>
      </trkpt>
      <trkpt lat="49.9323" lon="2.19246">
        <ele>11.2</ele>
        <time>2012-11-25T10:25:40Z</time>
      </trkpt>
      <trkpt lat="49.93236" lon="2.19223">
        <ele>9.8</ele>
        <time>2012-11-25T10:25:50Z</time>
      </trkpt>
      <trkpt lat="49.93241" lon="2.19203">
        <ele>11.4</ele>
        <time>2012-11-25T10:26:00Z</time>
      </trkpt>
      <trkpt lat="49.93247" lon="2.19184">
        <ele>14</ele>
        <time>2012-11-25T10:26:10Z</time>
      </trkpt>
      <trkpt lat="49.93254" lon="2.19163">
        <ele>16.7</ele>
        <time>2012-11-25T10:26:20Z</time>
      </trkpt>
      <trkpt lat="49.93262" lon="2.19141">
        <ele>13</ele>
        <time>2012-11-25T10:26:30Z</time>
      </trkpt>
      <trkpt lat="49.93267" lon="2.19121">
        <ele>10.6</ele>
        <time>2012-11-25T10:26:40Z</time>
      </trkpt>
      <trkpt lat="49.93273" lon="2.19101">
        <ele>11.5</ele>
        <time>2012-11-25T10:26:50Z</time>
      </trkpt>
      <trkpt lat="49.93281" lon="2.19082">
        <ele>11.7</ele>
        <time>2012-11-25T10:26:59Z</time>
      </trkpt>
      <trkpt lat="49.93289" lon="2.19062">
        <ele>11.8</ele>
        <time>2012-11-25T10:27:10Z</time>
      </trkpt>
      <trkpt lat="49.93294" lon="2.19042">
        <ele>12</ele>
        <time>2012-11-25T10:27:22Z</time>
      </trkpt>
      <trkpt lat="49.93296" lon="2.1902">
        <ele>13.6</ele>
        <time>2012-11-25T10:27:33Z</time>
      </trkpt>
      <trkpt lat="49.93295" lon="2.18996">
        <ele>10.9</ele>
        <time>2012-11-25T10:27:49Z</time>
      </trkpt>
      <trkpt lat="49.93291" lon="2.18975">
        <ele>1</ele>
        <time>2012-11-25T10:27:58Z</time>
      </trkpt>
      <trkpt lat="49.93288" lon="2.18953">
        <ele>3.4</ele>
        <time>2012-11-25T10:28:08Z</time>
      </trkpt>
      <trkpt lat="49.93287" lon="2.18932">
        <ele>4.1</ele>
        <time>2012-11-25T10:28:17Z</time>
      </trkpt>
      <trkpt lat="49.93286" lon="2.18911">
        <ele>4</ele>
        <time>2012-11-25T10:28:25Z</time>
      </trkpt>
      <trkpt lat="49.9329" lon="2.18889">
        <ele>8</ele>
        <time>2012-11-25T10:28:35Z</time>
      </trkpt>
      <trkpt lat="49.93296" lon="2.18867">
        <ele>12.1</ele>
        <time>2012-11-25T10:28:45Z</time>
      </trkpt>
      <trkpt lat="49.93303" lon="2.18848">
        <ele>13.7</ele>
        <time>2012-11-25T10:28:52Z</time>
      </trkpt>
      <trkpt lat="49.93314" lon="2.18834">
        <ele>9.9</ele>
        <time>2012-11-25T10:29:02Z</time>
      </trkpt>
      <trkpt lat="49.93327" lon="2.18827">
        <ele>7.1</ele>
        <time>2012-11-25T10:29:11Z</time>
      </trkpt>
      <trkpt lat="49.93339" lon="2.18818">
        <ele>12.1</ele>
        <time>2012-11-25T10:29:22Z</time>
      </trkpt>
      <trkpt lat="49.93352" lon="2.18811">
        <ele>10.2</ele>
        <time>2012-11-25T10:29:32Z</time>
      </trkpt>
      <trkpt lat="49.93365" lon="2.188">
        <ele>7.6</ele>
        <time>2012-11-25T10:29:44Z</time>
      </trkpt>
      <trkpt lat="49.93375" lon="2.18785">
        <ele>3.3</ele>
        <time>2012-11-25T10:29:54Z</time>
      </trkpt>
      <trkpt lat="49.93382" lon="2.18766">
        <ele>9.6</ele>
        <time>2012-11-25T10:30:04Z</time>
      </trkpt>
      <trkpt lat="49.93387" lon="2.18745">
        <ele>8.9</ele>
        <time>2012-11-25T10:30:12Z</time>
      </trkpt>
      <trkpt lat="49.9339" lon="2.18724">
        <ele>8.2</ele>
        <time>2012-11-25T10:30:21Z</time>
      </trkpt>
      <trkpt lat="49.93392" lon="2.18702">
        <ele>7.7</ele>
        <time>2012-11-25T10:30:30Z</time>
      </trkpt>
      <trkpt lat="49.93395" lon="2.18682">
        <ele>8.8</ele>
        <time>2012-11-25T10:30:39Z</time>
      </trkpt>
      <trkpt lat="49.934" lon="2.18659">
        <ele>10.1</ele>
        <time>2012-11-25T10:30:49Z</time>
      </trkpt>
      <trkpt lat="49.93407" lon="2.1864">
        <ele>12.2</ele>
        <time>2012-11-25T10:30:57Z</time>
      </trkpt>
      <trkpt lat="49.93415" lon="2.18621">
        <ele>17.2</ele>
        <time>2012-11-25T10:31:05Z</time>
      </trkpt>
      <trkpt lat="49.93421" lon="2.18603">
        <ele>18.4</ele>
        <time>2012-11-25T10:31:14Z</time>
      </trkpt>
      <trkpt lat="49.9343" lon="2.18585">
        <ele>15.9</ele>
        <time>2012-11-25T10:31:26Z</time>
      </trkpt>
      <trkpt lat="49.9344" lon="2.18571">
        <ele>10.8</ele>
        <time>2012-11-25T10:31:37Z</time>
      </trkpt>
      <trkpt lat="49.93449" lon="2.18552">
        <ele>15.3</ele>
        <time>2012-11-25T10:31:46Z</time>
      </trkpt>
      <trkpt lat="49.93456" lon="2.18533">
        <ele>15.4</ele>
        <time>2012-11-25T10:31:54Z</time>
      </trkpt>
      <trkpt lat="49.93466" lon="2.18514">
        <ele>17.2</ele>
        <time>2012-11-25T10:32:06Z</time>
      </trkpt>
      <trkpt lat="49.93475" lon="2.18498">
        <ele>11.5</ele>
        <time>2012-11-25T10:32:16Z</time>
      </trkpt>
      <trkpt lat="49.93484" lon="2.18482">
        <ele>13.7</ele>
        <time>2012-11-25T10:32:25Z</time>
      </trkpt>
      <trkpt lat="49.93495" lon="2.18469">
        <ele>12.3</ele>
        <time>2012-11-25T10:32:37Z</time>
      </trkpt>
      <trkpt lat="49.93505" lon="2.18453">
        <ele>13</ele>
        <time>2012-11-25T10:32:48Z</time>
      </trkpt>
      <trkpt lat="49.93514" lon="2.18436">
        <ele>11.3</ele>
        <time>2012-11-25T10:32:56Z</time>
      </trkpt>
      <trkpt lat="49.93522" lon="2.18419">
        <ele>9.6</ele>
        <time>2012-11-25T10:33:04Z</time>
      </trkpt>
      <trkpt lat="49.93529" lon="2.18397">
        <ele>12.8</ele>
        <time>2012-11-25T10:33:14Z</time>
      </trkpt>
      <trkpt lat="49.93539" lon="2.18379">
        <ele>10.5</ele>
        <time>2012-11-25T10:33:26Z</time>
      </trkpt>
      <trkpt lat="49.93551" lon="2.18367">
        <ele>15.7</ele>
        <time>2012-11-25T10:33:38Z</time>
      </trkpt>
      <trkpt lat="49.9356" lon="2.1835">
        <ele>9.5</ele>
        <time>2012-11-25T10:33:49Z</time>
      </trkpt>
      <trkpt lat="49.9357" lon="2.18334">
        <ele>8.9</ele>
        <time>2012-11-25T10:33:59Z</time>
      </trkpt>
      <trkpt lat="49.9358" lon="2.18318">
        <ele>7</ele>
        <time>2012-11-25T10:34:10Z</time>
      </trkpt>
      <trkpt lat="49.93588" lon="2.18301">
        <ele>6.5</ele>
        <time>2012-11-25T10:34:20Z</time>
      </trkpt>
      <trkpt lat="49.93597" lon="2.18282">
        <ele>8.8</ele>
        <time>2012-11-25T10:34:29Z</time>
      </trkpt>
      <trkpt lat="49.93604" lon="2.18262">
        <ele>11.4</ele>
        <time>2012-11-25T10:34:36Z</time>
      </trkpt>
      <trkpt lat="49.93609" lon="2.18242">
        <ele>15.6</ele>
        <time>2012-11-25T10:34:44Z</time>
      </trkpt>
      <trkpt lat="49.93617" lon="2.18225">
        <ele>11.9</ele>
        <time>2012-11-25T10:34:57Z</time>
      </trkpt>
      <trkpt lat="49.93625" lon="2.18208">
        <ele>13.8</ele>
        <time>2012-11-25T10:35:08Z</time>
      </trkpt>
      <trkpt lat="49.93633" lon="2.18189">
        <ele>12.9</ele>
        <time>2012-11-25T10:35:18Z</time>
      </trkpt>
      <trkpt lat="49.93644" lon="2.1817">
        <ele>10.9</ele>
        <time>2012-11-25T10:35:30Z</time>
      </trkpt>
      <trkpt lat="49.93653" lon="2.18153">
        <ele>6</ele>
        <time>2012-11-25T10:35:40Z</time>
      </trkpt>
      <trkpt lat="49.93661" lon="2.18134">
        <ele>0.6</ele>
        <time>2012-11-25T10:35:49Z</time>
      </trkpt>
      <trkpt lat="49.93672" lon="2.1812">
        <ele>3.6</ele>
        <time>2012-11-25T10:35:58Z</time>
      </trkpt>
      <trkpt lat="49.9368" lon="2.18103">
        <ele>7.3</ele>
        <time>2012-11-25T10:36:10Z</time>
      </trkpt>
      <trkpt lat="49.9369" lon="2.18087">
        <ele>8.1</ele>
        <time>2012-11-25T10:36:21Z</time>
      </trkpt>
      <trkpt lat="49.93703" lon="2.18076">
        <ele>11.8</ele>
        <time>2012-11-25T10:36:37Z</time>
      </trkpt>
      <trkpt lat="49.93713" lon="2.18059">
        <ele>12.8</ele>
        <time>2012-11-25T10:36:48Z</time>
      </trkpt>
      <trkpt lat="49.93725" lon="2.18047">
        <ele>12.5</ele>
        <time>2012-11-25T10:36:58Z</time>
      </trkpt>
      <trkpt lat="49.93737" lon="2.18034">
        <ele>12.2</ele>
        <time>2012-11-25T10:37:08Z</time>
      </trkpt>
      <trkpt lat="49.9375" lon="2.18025">
        <ele>12.5</ele>
        <time>2012-11-25T10:37:17Z</time>
      </trkpt>
      <trkpt lat="49.93764" lon="2.18021">
        <ele>13.1</ele>
        <time>2012-11-25T10:37:28Z</time>
      </trkpt>
      <trkpt lat="49.93778" lon="2.1802">
        <ele>12</ele>
        <time>2012-11-25T10:37:38Z</time>
      </trkpt>
      <trkpt lat="49.93792" lon="2.1802">
        <ele>9.6</ele>
        <time>2012-11-25T10:37:49Z</time>
      </trkpt>
      <trkpt lat="49.93806" lon="2.18024">
        <ele>6.7</ele>
        <time>2012-11-25T10:38:01Z</time>
      </trkpt>
      <trkpt lat="49.93819" lon="2.18031">
        <ele>1.9</ele>
        <time>2012-11-25T10:38:13Z</time>
      </trkpt>
      <trkpt lat="49.93833" lon="2.18041">
        <ele>1.2</ele>
        <time>2012-11-25T10:38:25Z</time>
      </trkpt>
      <trkpt lat="49.93848" lon="2.18044">
        <ele>1.6</ele>
        <time>2012-11-25T10:38:30Z</time>
      </trkpt>
      <trkpt lat="49.93862" lon="2.18047">
        <ele>3</ele>
        <time>2012-11-25T10:38:37Z</time>
      </trkpt>
      <trkpt lat="49.93877" lon="2.1805">
        <ele>4.3</ele>
        <time>2012-11-25T10:38:44Z</time>
      </trkpt>
      <trkpt lat="49.9389" lon="2.18042">
        <ele>5.7</ele>
        <time>2012-11-25T10:38:54Z</time>
      </trkpt>
      <trkpt lat="49.93902" lon="2.18029">
        <ele>6.5</ele>
        <time>2012-11-25T10:39:05Z</time>
      </trkpt>
      <trkpt lat="49.93914" lon="2.18015">
        <ele>9.7</ele>
        <time>2012-11-25T10:39:16Z</time>
      </trkpt>
      <trkpt lat="49.93923" lon="2.17999">
        <ele>11.6</ele>
        <time>2012-11-25T10:39:25Z</time>
      </trkpt>
      <trkpt lat="49.93935" lon="2.17978">
        <ele>9.8</ele>
        <time>2012-11-25T10:39:36Z</time>
      </trkpt>
      <trkpt lat="49.93947" lon="2.17966">
        <ele>7.2</ele>
        <time>2012-11-25T10:39:50Z</time>
      </trkpt>
      <trkpt lat="49.93958" lon="2.17952">
        <ele>2.9</ele>
        <time>2012-11-25T10:40:00Z</time>
      </trkpt>
      <trkpt lat="49.9397" lon="2.17938">
        <ele>7.2</ele>
        <time>2012-11-25T10:40:11Z</time>
      </trkpt>
      <trkpt lat="49.9398" lon="2.17921">
        <ele>9.3</ele>
        <time>2012-11-25T10:40:21Z</time>
      </trkpt>
      <trkpt lat="49.93989" lon="2.17904">
        <ele>6.9</ele>
        <time>2012-11-25T10:40:31Z</time>
      </trkpt>
      <trkpt lat="49.94" lon="2.1789">
        <ele>4</ele>
        <time>2012-11-25T10:40:40Z</time>
      </trkpt>
      <trkpt lat="49.94011" lon="2.17875">
        <ele>6.6</ele>
        <time>2012-11-25T10:40:50Z</time>
      </trkpt>
      <trkpt lat="49.94021" lon="2.17861">
        <ele>9.2</ele>
        <time>2012-11-25T10:40:58Z</time>
      </trkpt>
      <trkpt lat="49.94031" lon="2.17845">
        <ele>12.1</ele>
        <time>2012-11-25T10:41:07Z</time>
      </trkpt>
      <trkpt lat="49.94043" lon="2.17832">
        <ele>9.6</ele>
        <time>2012-11-25T10:41:15Z</time>
      </trkpt>
      <trkpt lat="49.94057" lon="2.17824">
        <ele>6.1</ele>
        <time>2012-11-25T10:41:25Z</time>
      </trkpt>
      <trkpt lat="49.9407" lon="2.17819">
        <ele>8.3</ele>
        <time>2012-11-25T10:41:35Z</time>
      </trkpt>
      <trkpt lat="49.94083" lon="2.17812">
        <ele>11.2</ele>
        <time>2012-11-25T10:41:46Z</time>
      </trkpt>
      <trkpt lat="49.94096" lon="2.17804">
        <ele>6.1</ele>
        <time>2012-11-25T10:41:56Z</time>
      </trkpt>
      <trkpt lat="49.94108" lon="2.17792">
        <ele>4.5</ele>
        <time>2012-11-25T10:42:06Z</time>
      </trkpt>
      <trkpt lat="49.94118" lon="2.17776">
        <ele>8.6</ele>
        <time>2012-11-25T10:42:17Z</time>
      </trkpt>
      <trkpt lat="49.94126" lon="2.17759">
        <ele>5.4</ele>
        <time>2012-11-25T10:42:27Z</time>
      </trkpt>
      <trkpt lat="49.94134" lon="2.17739">
        <ele>2.3</ele>
        <time>2012-11-25T10:42:37Z</time>
      </trkpt>
      <trkpt lat="49.94145" lon="2.17725">
        <ele>7.7</ele>
        <time>2012-11-25T10:42:47Z</time>
      </trkpt>
      <trkpt lat="49.94158" lon="2.17714">
        <ele>10</ele>
        <time>2012-11-25T10:42:57Z</time>
      </trkpt>
      <trkpt lat="49.94175" lon="2.17705">
        <ele>10.8</ele>
        <time>2012-11-25T10:43:08Z</time>
      </trkpt>
      <trkpt lat="49.94189" lon="2.17703">
        <ele>11.6</ele>
        <time>2012-11-25T10:43:18Z</time>
      </trkpt>
      <trkpt lat="49.94202" lon="2.17701">
        <ele>12.3</ele>
        <time>2012-11-25T10:43:28Z</time>
      </trkpt>
      <trkpt lat="49.94216" lon="2.17701">
        <ele>11.6</ele>
        <time>2012-11-25T10:43:37Z</time>
      </trkpt>
      <trkpt lat="49.94231" lon="2.177">
        <ele>8</ele>
        <time>2012-11-25T10:43:47Z</time>
      </trkpt>
      <trkpt lat="49.94246" lon="2.17697">
        <ele>6.3</ele>
        <time>2012-11-25T10:43:59Z</time>
      </trkpt>
      <trkpt lat="49.94259" lon="2.17691">
        <ele>6.9</ele>
        <time>2012-11-25T10:44:08Z</time>
      </trkpt>
      <trkpt lat="49.94272" lon="2.17687">
        <ele>8</ele>
        <time>2012-11-25T10:44:19Z</time>
      </trkpt>
      <trkpt lat="49.94289" lon="2.17684">
        <ele>5.7</ele>
        <time>2012-11-25T10:44:29Z</time>
      </trkpt>
      <trkpt lat="49.94304" lon="2.17681">
        <ele>6</ele>
        <time>2012-11-25T10:44:41Z</time>
      </trkpt>
      <trkpt lat="49.94322" lon="2.17672">
        <ele>1.4</ele>
        <time>2012-11-25T10:44:52Z</time>
      </trkpt>
      <trkpt lat="49.94335" lon="2.17662">
        <ele>5.4</ele>
        <time>2012-11-25T10:45:05Z</time>
      </trkpt>
      <trkpt lat="49.94345" lon="2.17646">
        <ele>5.2</ele>
        <time>2012-11-25T10:45:14Z</time>
      </trkpt>
      <trkpt lat="49.94355" lon="2.17631">
        <ele>5</ele>
        <time>2012-11-25T10:45:23Z</time>
      </trkpt>
      <trkpt lat="49.94365" lon="2.17615">
        <ele>2.8</ele>
        <time>2012-11-25T10:45:33Z</time>
      </trkpt>
      <trkpt lat="49.94378" lon="2.17584">
        <ele>10</ele>
        <time>2012-11-25T10:45:43Z</time>
      </trkpt>
      <trkpt lat="49.94378" lon="2.17584">
        <ele>10</ele>
        <time>2012-11-25T10:49:01Z</time>
      </trkpt>
      <trkpt lat="49.94383" lon="2.17573">
        <ele>6.7</ele>
        <time>2012-11-25T10:49:03Z</time>
      </trkpt>
      <trkpt lat="49.94387" lon="2.17553">
        <ele>2.6</ele>
        <time>2012-11-25T10:49:13Z</time>
      </trkpt>
      <trkpt lat="49.94393" lon="2.17533">
        <ele>5.3</ele>
        <time>2012-11-25T10:49:23Z</time>
      </trkpt>
      <trkpt lat="49.94398" lon="2.17512">
        <ele>2.8</ele>
        <time>2012-11-25T10:49:32Z</time>
      </trkpt>
      <trkpt lat="49.94402" lon="2.17491">
        <ele>4.5</ele>
        <time>2012-11-25T10:49:41Z</time>
      </trkpt>
      <trkpt lat="49.94409" lon="2.17471">
        <ele>9.5</ele>
        <time>2012-11-25T10:49:50Z</time>
      </trkpt>
      <trkpt lat="49.94418" lon="2.17455">
        <ele>10.4</ele>
        <time>2012-11-25T10:49:58Z</time>
      </trkpt>
      <trkpt lat="49.94429" lon="2.1744">
        <ele>11.5</ele>
        <time>2012-11-25T10:50:08Z</time>
      </trkpt>
      <trkpt lat="49.94441" lon="2.17427">
        <ele>10</ele>
        <time>2012-11-25T10:50:17Z</time>
      </trkpt>
      <trkpt lat="49.94453" lon="2.17413">
        <ele>13.3</ele>
        <time>2012-11-25T10:50:27Z</time>
      </trkpt>
      <trkpt lat="49.94465" lon="2.17399">
        <ele>14.4</ele>
        <time>2012-11-25T10:50:36Z</time>
      </trkpt>
      <trkpt lat="49.94476" lon="2.17387">
        <ele>15.4</ele>
        <time>2012-11-25T10:50:44Z</time>
      </trkpt>
      <trkpt lat="49.94487" lon="2.17373">
        <ele>16.6</ele>
        <time>2012-11-25T10:50:53Z</time>
      </trkpt>
      <trkpt lat="49.94497" lon="2.17358">
        <ele>17.2</ele>
        <time>2012-11-25T10:51:02Z</time>
      </trkpt>
      <trkpt lat="49.94507" lon="2.17342">
        <ele>17.9</ele>
        <time>2012-11-25T10:51:13Z</time>
      </trkpt>
      <trkpt lat="49.94516" lon="2.17327">
        <ele>8.7</ele>
        <time>2012-11-25T10:51:23Z</time>
      </trkpt>
      <trkpt lat="49.94525" lon="2.17309">
        <ele>11.1</ele>
        <time>2012-11-25T10:51:34Z</time>
      </trkpt>
      <trkpt lat="49.94532" lon="2.17291">
        <ele>8</ele>
        <time>2012-11-25T10:51:45Z</time>
      </trkpt>
      <trkpt lat="49.94541" lon="2.17273">
        <ele>10.4</ele>
        <time>2012-11-25T10:51:55Z</time>
      </trkpt>
      <trkpt lat="49.94546" lon="2.17253">
        <ele>9.6</ele>
        <time>2012-11-25T10:52:03Z</time>
      </trkpt>
      <trkpt lat="49.94552" lon="2.17231">
        <ele>4.5</ele>
        <time>2012-11-25T10:52:14Z</time>
      </trkpt>
      <trkpt lat="49.94554" lon="2.1721">
        <ele>2.2</ele>
        <time>2012-11-25T10:52:25Z</time>
      </trkpt>
      <trkpt lat="49.94555" lon="2.17189">
        <ele>0.5</ele>
        <time>2012-11-25T10:52:36Z</time>
      </trkpt>
      <trkpt lat="49.94555" lon="2.17167">
        <ele>2.8</ele>
        <time>2012-11-25T10:52:48Z</time>
      </trkpt>
      <trkpt lat="49.94557" lon="2.17145">
        <ele>4.1</ele>
        <time>2012-11-25T10:52:56Z</time>
      </trkpt>
      <trkpt lat="49.94562" lon="2.17125">
        <ele>5.7</ele>
        <time>2012-11-25T10:53:04Z</time>
      </trkpt>
      <trkpt lat="49.94574" lon="2.17113">
        <ele>6.5</ele>
        <time>2012-11-25T10:53:14Z</time>
      </trkpt>
      <trkpt lat="49.94588" lon="2.17106">
        <ele>1.7</ele>
        <time>2012-11-25T10:53:25Z</time>
      </trkpt>
      <trkpt lat="49.94602" lon="2.171">
        <ele>2.2</ele>
        <time>2012-11-25T10:53:35Z</time>
      </trkpt>
      <trkpt lat="49.94616" lon="2.17094">
        <ele>5.3</ele>
        <time>2012-11-25T10:53:45Z</time>
      </trkpt>
      <trkpt lat="49.94629" lon="2.17085">
        <ele>7.5</ele>
        <time>2012-11-25T10:53:54Z</time>
      </trkpt>
      <trkpt lat="49.94641" lon="2.1707">
        <ele>9.5</ele>
        <time>2012-11-25T10:54:02Z</time>
      </trkpt>
      <trkpt lat="49.9465" lon="2.17054">
        <ele>10.8</ele>
        <time>2012-11-25T10:54:08Z</time>
      </trkpt>
      <trkpt lat="49.94659" lon="2.17039">
        <ele>12.6</ele>
        <time>2012-11-25T10:54:16Z</time>
      </trkpt>
      <trkpt lat="49.94671" lon="2.17028">
        <ele>12.2</ele>
        <time>2012-11-25T10:54:27Z</time>
      </trkpt>
      <trkpt lat="49.94683" lon="2.17016">
        <ele>6.1</ele>
        <time>2012-11-25T10:54:37Z</time>
      </trkpt>
      <trkpt lat="49.94698" lon="2.17006">
        <ele>9.5</ele>
        <time>2012-11-25T10:54:47Z</time>
      </trkpt>
      <trkpt lat="49.94711" lon="2.16993">
        <ele>11.5</ele>
        <time>2012-11-25T10:55:00Z</time>
      </trkpt>
      <trkpt lat="49.94722" lon="2.16978">
        <ele>6.4</ele>
        <time>2012-11-25T10:55:10Z</time>
      </trkpt>
      <trkpt lat="49.94732" lon="2.16961">
        <ele>9.6</ele>
        <time>2012-11-25T10:55:18Z</time>
      </trkpt>
      <trkpt lat="49.94741" lon="2.16946">
        <ele>11.5</ele>
        <time>2012-11-25T10:55:27Z</time>
      </trkpt>
      <trkpt lat="49.94749" lon="2.16927">
        <ele>10.3</ele>
        <time>2012-11-25T10:55:38Z</time>
      </trkpt>
      <trkpt lat="49.94753" lon="2.16905">
        <ele>9.1</ele>
        <time>2012-11-25T10:55:49Z</time>
      </trkpt>
      <trkpt lat="49.94757" lon="2.16883">
        <ele>8.3</ele>
        <time>2012-11-25T10:55:59Z</time>
      </trkpt>
      <trkpt lat="49.9476" lon="2.16863">
        <ele>8.8</ele>
        <time>2012-11-25T10:56:09Z</time>
      </trkpt>
      <trkpt lat="49.9476" lon="2.16841">
        <ele>9.2</ele>
        <time>2012-11-25T10:56:16Z</time>
      </trkpt>
      <trkpt lat="49.94761" lon="2.16818">
        <ele>7</ele>
        <time>2012-11-25T10:56:26Z</time>
      </trkpt>
      <trkpt lat="49.94767" lon="2.16799">
        <ele>4.8</ele>
        <time>2012-11-25T10:56:36Z</time>
      </trkpt>
      <trkpt lat="49.94771" lon="2.16778">
        <ele>7.6</ele>
        <time>2012-11-25T10:56:44Z</time>
      </trkpt>
      <trkpt lat="49.9478" lon="2.16762">
        <ele>2.6</ele>
        <time>2012-11-25T10:56:51Z</time>
      </trkpt>
      <trkpt lat="49.9479" lon="2.16746">
        <ele>9.7</ele>
        <time>2012-11-25T10:56:59Z</time>
      </trkpt>
      <trkpt lat="49.94802" lon="2.16732">
        <ele>13.6</ele>
        <time>2012-11-25T10:57:09Z</time>
      </trkpt>
      <trkpt lat="49.94815" lon="2.16727">
        <ele>17.1</ele>
        <time>2012-11-25T10:57:18Z</time>
      </trkpt>
      <trkpt lat="49.94814" lon="2.16743">
        <ele>18.4</ele>
        <time>2012-11-25T10:57:25Z</time>
      </trkpt>
      <trkpt lat="49.94816" lon="2.16771">
        <ele>6.2</ele>
        <time>2012-11-25T10:57:36Z</time>
      </trkpt>
      <trkpt lat="49.94827" lon="2.16791">
        <ele>4</ele>
        <time>2012-11-25T10:57:46Z</time>
      </trkpt>
      <trkpt lat="49.94839" lon="2.16804">
        <ele>1.2</ele>
        <time>2012-11-25T10:57:53Z</time>
      </trkpt>
      <trkpt lat="49.94845" lon="2.16825">
        <ele>4.8</ele>
        <time>2012-11-25T10:58:04Z</time>
      </trkpt>
      <trkpt lat="49.94852" lon="2.16854">
        <ele>2.8</ele>
        <time>2012-11-25T10:58:18Z</time>
      </trkpt>
      <trkpt lat="49.94857" lon="2.16875">
        <ele>5.8</ele>
        <time>2012-11-25T10:58:28Z</time>
      </trkpt>
      <trkpt lat="49.9486" lon="2.16898">
        <ele>10.8</ele>
        <time>2012-11-25T10:58:44Z</time>
      </trkpt>
      <trkpt lat="49.9486" lon="2.16898">
        <ele>10.8</ele>
        <time>2012-11-25T11:05:12Z</time>
      </trkpt>
      <trkpt lat="49.94858" lon="2.16901">
        <ele>10.7</ele>
        <time>2012-11-25T11:05:18Z</time>
      </trkpt>
      <trkpt lat="49.94867" lon="2.16941">
        <ele>17.1</ele>
        <time>2012-11-25T11:05:47Z</time>
      </trkpt>
      <trkpt lat="49.94867" lon="2.16941">
        <ele>17.1</ele>
        <time>2012-11-25T11:06:34Z</time>
      </trkpt>
      <trkpt lat="49.94872" lon="2.16959">
        <ele>23</ele>
        <time>2012-11-25T11:06:36Z</time>
      </trkpt>
      <trkpt lat="49.94887" lon="2.16962">
        <ele>21.7</ele>
        <time>2012-11-25T11:06:53Z</time>
      </trkpt>
      <trkpt lat="49.94901" lon="2.16966">
        <ele>22.3</ele>
        <time>2012-11-25T11:06:58Z</time>
      </trkpt>
      <trkpt lat="49.94912" lon="2.16978">
        <ele>14.4</ele>
        <time>2012-11-25T11:07:09Z</time>
      </trkpt>
      <trkpt lat="49.94926" lon="2.16988">
        <ele>19.1</ele>
        <time>2012-11-25T11:07:18Z</time>
      </trkpt>
      <trkpt lat="49.9494" lon="2.16993">
        <ele>21.6</ele>
        <time>2012-11-25T11:07:25Z</time>
      </trkpt>
      <trkpt lat="49.94943" lon="2.1701">
        <ele>25</ele>
        <time>2012-11-25T11:07:34Z</time>
      </trkpt>
      <trkpt lat="49.9494" lon="2.17032">
        <ele>27.2</ele>
        <time>2012-11-25T11:07:40Z</time>
      </trkpt>
      <trkpt lat="49.94934" lon="2.17057">
        <ele>29.5</ele>
        <time>2012-11-25T11:07:51Z</time>
      </trkpt>
      <trkpt lat="49.94935" lon="2.17088">
        <ele>27.1</ele>
        <time>2012-11-25T11:08:00Z</time>
      </trkpt>
      <trkpt lat="49.94929" lon="2.17109">
        <ele>15</ele>
        <time>2012-11-25T11:08:25Z</time>
      </trkpt>
      <trkpt lat="49.9492" lon="2.17135">
        <ele>14</ele>
        <time>2012-11-25T11:08:36Z</time>
      </trkpt>
      <trkpt lat="49.94913" lon="2.17156">
        <ele>9.4</ele>
        <time>2012-11-25T11:08:50Z</time>
      </trkpt>
      <trkpt lat="49.94905" lon="2.17175">
        <ele>7</ele>
        <time>2012-11-25T11:08:56Z</time>
      </trkpt>
      <trkpt lat="49.94898" lon="2.172">
        <ele>12.1</ele>
        <time>2012-11-25T11:09:10Z</time>
      </trkpt>
      <trkpt lat="49.94889" lon="2.1722">
        <ele>17.5</ele>
        <time>2012-11-25T11:09:21Z</time>
      </trkpt>
      <trkpt lat="49.94882" lon="2.17245">
        <ele>20.1</ele>
        <time>2012-11-25T11:09:35Z</time>
      </trkpt>
      <trkpt lat="49.9487" lon="2.17266">
        <ele>18.7</ele>
        <time>2012-11-25T11:09:51Z</time>
      </trkpt>
      <trkpt lat="49.94861" lon="2.17288">
        <ele>22.5</ele>
        <time>2012-11-25T11:09:59Z</time>
      </trkpt>
      <trkpt lat="49.94852" lon="2.17311">
        <ele>22.5</ele>
        <time>2012-11-25T11:10:09Z</time>
      </trkpt>
      <trkpt lat="49.94848" lon="2.17327">
        <ele>27.3</ele>
        <time>2012-11-25T11:10:23Z</time>
      </trkpt>
      <trkpt lat="49.94849" lon="2.17353">
        <ele>28</ele>
        <time>2012-11-25T11:10:28Z</time>
      </trkpt>
      <trkpt lat="49.94855" lon="2.17378">
        <ele>32.3</ele>
        <time>2012-11-25T11:10:36Z</time>
      </trkpt>
      <trkpt lat="49.94866" lon="2.17395">
        <ele>37.4</ele>
        <time>2012-11-25T11:10:50Z</time>
      </trkpt>
      <trkpt lat="49.94876" lon="2.17417">
        <ele>38.9</ele>
        <time>2012-11-25T11:11:01Z</time>
      </trkpt>
      <trkpt lat="49.94886" lon="2.17432">
        <ele>37.3</ele>
        <time>2012-11-25T11:11:16Z</time>
      </trkpt>
      <trkpt lat="49.94894" lon="2.17449">
        <ele>36.5</ele>
        <time>2012-11-25T11:11:27Z</time>
      </trkpt>
      <trkpt lat="49.94901" lon="2.17467">
        <ele>30.9</ele>
        <time>2012-11-25T11:11:37Z</time>
      </trkpt>
      <trkpt lat="49.94908" lon="2.17486">
        <ele>32.8</ele>
        <time>2012-11-25T11:11:50Z</time>
      </trkpt>
      <trkpt lat="49.94916" lon="2.17503">
        <ele>34.2</ele>
        <time>2012-11-25T11:12:00Z</time>
      </trkpt>
      <trkpt lat="49.94925" lon="2.17523">
        <ele>32.5</ele>
        <time>2012-11-25T11:12:12Z</time>
      </trkpt>
      <trkpt lat="49.94929" lon="2.17543">
        <ele>35.2</ele>
        <time>2012-11-25T11:12:22Z</time>
      </trkpt>
      <trkpt lat="49.94934" lon="2.17564">
        <ele>38.5</ele>
        <time>2012-11-25T11:12:32Z</time>
      </trkpt>
      <trkpt lat="49.94939" lon="2.17584">
        <ele>37.1</ele>
        <time>2012-11-25T11:12:41Z</time>
      </trkpt>
      <trkpt lat="49.94945" lon="2.17604">
        <ele>42.6</ele>
        <time>2012-11-25T11:12:51Z</time>
      </trkpt>
      <trkpt lat="49.94953" lon="2.17623">
        <ele>41.4</ele>
        <time>2012-11-25T11:13:01Z</time>
      </trkpt>
      <trkpt lat="49.94961" lon="2.17642">
        <ele>39.1</ele>
        <time>2012-11-25T11:13:12Z</time>
      </trkpt>
      <trkpt lat="49.94968" lon="2.1766">
        <ele>41</ele>
        <time>2012-11-25T11:13:21Z</time>
      </trkpt>
      <trkpt lat="49.94975" lon="2.17679">
        <ele>46</ele>
        <time>2012-11-25T11:13:31Z</time>
      </trkpt>
      <trkpt lat="49.94982" lon="2.17698">
        <ele>39.5</ele>
        <time>2012-11-25T11:13:41Z</time>
      </trkpt>
      <trkpt lat="49.94991" lon="2.17717">
        <ele>44.3</ele>
        <time>2012-11-25T11:13:51Z</time>
      </trkpt>
      <trkpt lat="49.94998" lon="2.17737">
        <ele>44.3</ele>
        <time>2012-11-25T11:14:01Z</time>
      </trkpt>
      <trkpt lat="49.95004" lon="2.17756">
        <ele>44.2</ele>
        <time>2012-11-25T11:14:11Z</time>
      </trkpt>
      <trkpt lat="49.95009" lon="2.17777">
        <ele>42.4</ele>
        <time>2012-11-25T11:14:23Z</time>
      </trkpt>
      <trkpt lat="49.95014" lon="2.17796">
        <ele>43.8</ele>
        <time>2012-11-25T11:14:31Z</time>
      </trkpt>
      <trkpt lat="49.9502" lon="2.17816">
        <ele>45</ele>
        <time>2012-11-25T11:14:41Z</time>
      </trkpt>
      <trkpt lat="49.95024" lon="2.17837">
        <ele>46.1</ele>
        <time>2012-11-25T11:14:51Z</time>
      </trkpt>
      <trkpt lat="49.95028" lon="2.17858">
        <ele>47.1</ele>
        <time>2012-11-25T11:15:00Z</time>
      </trkpt>
      <trkpt lat="49.95031" lon="2.17881">
        <ele>48.2</ele>
        <time>2012-11-25T11:15:11Z</time>
      </trkpt>
      <trkpt lat="49.95032" lon="2.17902">
        <ele>49.3</ele>
        <time>2012-11-25T11:15:21Z</time>
      </trkpt>
      <trkpt lat="49.95035" lon="2.17924">
        <ele>49</ele>
        <time>2012-11-25T11:15:31Z</time>
      </trkpt>
      <trkpt lat="49.95037" lon="2.17945">
        <ele>42.5</ele>
        <time>2012-11-25T11:15:40Z</time>
      </trkpt>
      <trkpt lat="49.95038" lon="2.17967">
        <ele>47.8</ele>
        <time>2012-11-25T11:15:50Z</time>
      </trkpt>
      <trkpt lat="49.95035" lon="2.17987">
        <ele>49.1</ele>
        <time>2012-11-25T11:15:59Z</time>
      </trkpt>
      <trkpt lat="49.95034" lon="2.18009">
        <ele>48.1</ele>
        <time>2012-11-25T11:16:08Z</time>
      </trkpt>
      <trkpt lat="49.95034" lon="2.18032">
        <ele>47.1</ele>
        <time>2012-11-25T11:16:18Z</time>
      </trkpt>
      <trkpt lat="49.95034" lon="2.18053">
        <ele>48</ele>
        <time>2012-11-25T11:16:28Z</time>
      </trkpt>
      <trkpt lat="49.95032" lon="2.18076">
        <ele>49.4</ele>
        <time>2012-11-25T11:16:38Z</time>
      </trkpt>
      <trkpt lat="49.95031" lon="2.18097">
        <ele>50.6</ele>
        <time>2012-11-25T11:16:49Z</time>
      </trkpt>
      <trkpt lat="49.95031" lon="2.18118">
        <ele>51.9</ele>
        <time>2012-11-25T11:16:58Z</time>
      </trkpt>
      <trkpt lat="49.95031" lon="2.18142">
        <ele>53.5</ele>
        <time>2012-11-25T11:17:09Z</time>
      </trkpt>
      <trkpt lat="49.95032" lon="2.18163">
        <ele>51.3</ele>
        <time>2012-11-25T11:17:19Z</time>
      </trkpt>
      <trkpt lat="49.95033" lon="2.18185">
        <ele>49</ele>
        <time>2012-11-25T11:17:28Z</time>
      </trkpt>
      <trkpt lat="49.95035" lon="2.18207">
        <ele>48.3</ele>
        <time>2012-11-25T11:17:39Z</time>
      </trkpt>
      <trkpt lat="49.95041" lon="2.18228">
        <ele>49</ele>
        <time>2012-11-25T11:17:48Z</time>
      </trkpt>
      <trkpt lat="49.95046" lon="2.18249">
        <ele>49.6</ele>
        <time>2012-11-25T11:17:58Z</time>
      </trkpt>
      <trkpt lat="49.95053" lon="2.18267">
        <ele>51.6</ele>
        <time>2012-11-25T11:18:07Z</time>
      </trkpt>
      <trkpt lat="49.9506" lon="2.18286">
        <ele>48</ele>
        <time>2012-11-25T11:18:18Z</time>
      </trkpt>
      <trkpt lat="49.95067" lon="2.18306">
        <ele>48.1</ele>
        <time>2012-11-25T11:18:28Z</time>
      </trkpt>
      <trkpt lat="49.95074" lon="2.18324">
        <ele>51.3</ele>
        <time>2012-11-25T11:18:39Z</time>
      </trkpt>
      <trkpt lat="49.9508" lon="2.18345">
        <ele>50.4</ele>
        <time>2012-11-25T11:18:49Z</time>
      </trkpt>
      <trkpt lat="49.95087" lon="2.18364">
        <ele>49.3</ele>
        <time>2012-11-25T11:19:00Z</time>
      </trkpt>
      <trkpt lat="49.95095" lon="2.18385">
        <ele>48.3</ele>
        <time>2012-11-25T11:19:10Z</time>
      </trkpt>
      <trkpt lat="49.95102" lon="2.18404">
        <ele>48</ele>
        <time>2012-11-25T11:19:22Z</time>
      </trkpt>
      <trkpt lat="49.95109" lon="2.18422">
        <ele>51.4</ele>
        <time>2012-11-25T11:19:32Z</time>
      </trkpt>
      <trkpt lat="49.95116" lon="2.18443">
        <ele>52.2</ele>
        <time>2012-11-25T11:19:41Z</time>
      </trkpt>
      <trkpt lat="49.95121" lon="2.18464">
        <ele>53</ele>
        <time>2012-11-25T11:19:51Z</time>
      </trkpt>
      <trkpt lat="49.95127" lon="2.18485">
        <ele>53.9</ele>
        <time>2012-11-25T11:20:01Z</time>
      </trkpt>
      <trkpt lat="49.95134" lon="2.18506">
        <ele>54.8</ele>
        <time>2012-11-25T11:20:11Z</time>
      </trkpt>
      <trkpt lat="49.9514" lon="2.18525">
        <ele>53.5</ele>
        <time>2012-11-25T11:20:21Z</time>
      </trkpt>
      <trkpt lat="49.95147" lon="2.18546">
        <ele>51.4</ele>
        <time>2012-11-25T11:20:31Z</time>
      </trkpt>
      <trkpt lat="49.95153" lon="2.18566">
        <ele>50.5</ele>
        <time>2012-11-25T11:20:41Z</time>
      </trkpt>
      <trkpt lat="49.95159" lon="2.18588">
        <ele>49.6</ele>
        <time>2012-11-25T11:20:51Z</time>
      </trkpt>
      <trkpt lat="49.95165" lon="2.18607">
        <ele>48.6</ele>
        <time>2012-11-25T11:21:01Z</time>
      </trkpt>
      <trkpt lat="49.95173" lon="2.18627">
        <ele>47.5</ele>
        <time>2012-11-25T11:21:13Z</time>
      </trkpt>
      <trkpt lat="49.95179" lon="2.18647">
        <ele>51.7</ele>
        <time>2012-11-25T11:21:24Z</time>
      </trkpt>
      <trkpt lat="49.95185" lon="2.18668">
        <ele>54.3</ele>
        <time>2012-11-25T11:21:33Z</time>
      </trkpt>
      <trkpt lat="49.95192" lon="2.18686">
        <ele>50.3</ele>
        <time>2012-11-25T11:21:43Z</time>
      </trkpt>
      <trkpt lat="49.95199" lon="2.18704">
        <ele>53</ele>
        <time>2012-11-25T11:21:52Z</time>
      </trkpt>
      <trkpt lat="49.95208" lon="2.18722">
        <ele>51.7</ele>
        <time>2012-11-25T11:22:02Z</time>
      </trkpt>
      <trkpt lat="49.95217" lon="2.18739">
        <ele>50.7</ele>
        <time>2012-11-25T11:22:14Z</time>
      </trkpt>
      <trkpt lat="49.95226" lon="2.18757">
        <ele>53.6</ele>
        <time>2012-11-25T11:22:24Z</time>
      </trkpt>
      <trkpt lat="49.95235" lon="2.18775">
        <ele>54</ele>
        <time>2012-11-25T11:22:34Z</time>
      </trkpt>
      <trkpt lat="49.95244" lon="2.18792">
        <ele>54.4</ele>
        <time>2012-11-25T11:22:45Z</time>
      </trkpt>
      <trkpt lat="49.95253" lon="2.18811">
        <ele>54.8</ele>
        <time>2012-11-25T11:22:55Z</time>
      </trkpt>
      <trkpt lat="49.9526" lon="2.18829">
        <ele>55.3</ele>
        <time>2012-11-25T11:23:07Z</time>
      </trkpt>
      <trkpt lat="49.95268" lon="2.18847">
        <ele>55.6</ele>
        <time>2012-11-25T11:23:17Z</time>
      </trkpt>
      <trkpt lat="49.95275" lon="2.18866">
        <ele>56</ele>
        <time>2012-11-25T11:23:27Z</time>
      </trkpt>
      <trkpt lat="49.95283" lon="2.18887">
        <ele>56.6</ele>
        <time>2012-11-25T11:23:42Z</time>
      </trkpt>
      <trkpt lat="49.9529" lon="2.18907">
        <ele>54.7</ele>
        <time>2012-11-25T11:23:53Z</time>
      </trkpt>
      <trkpt lat="49.95295" lon="2.18928">
        <ele>52.5</ele>
        <time>2012-11-25T11:24:05Z</time>
      </trkpt>
      <trkpt lat="49.953" lon="2.18949">
        <ele>51.4</ele>
        <time>2012-11-25T11:24:14Z</time>
      </trkpt>
      <trkpt lat="49.95306" lon="2.18968">
        <ele>50.2</ele>
        <time>2012-11-25T11:24:24Z</time>
      </trkpt>
      <trkpt lat="49.95313" lon="2.18988">
        <ele>52</ele>
        <time>2012-11-25T11:24:33Z</time>
      </trkpt>
      <trkpt lat="49.9532" lon="2.19007">
        <ele>55.6</ele>
        <time>2012-11-25T11:24:43Z</time>
      </trkpt>
      <trkpt lat="49.95327" lon="2.19027">
        <ele>58.2</ele>
        <time>2012-11-25T11:24:54Z</time>
      </trkpt>
      <trkpt lat="49.95334" lon="2.19045">
        <ele>56.9</ele>
        <time>2012-11-25T11:25:05Z</time>
      </trkpt>
      <trkpt lat="49.95342" lon="2.19064">
        <ele>56.8</ele>
        <time>2012-11-25T11:25:16Z</time>
      </trkpt>
      <trkpt lat="49.95346" lon="2.19085">
        <ele>58.3</ele>
        <time>2012-11-25T11:25:26Z</time>
      </trkpt>
      <trkpt lat="49.95333" lon="2.19077">
        <ele>60</ele>
        <time>2012-11-25T11:25:40Z</time>
      </trkpt>
      <trkpt lat="49.9532" lon="2.19066">
        <ele>57.4</ele>
        <time>2012-11-25T11:25:51Z</time>
      </trkpt>
      <trkpt lat="49.95309" lon="2.19055">
        <ele>59.3</ele>
        <time>2012-11-25T11:26:01Z</time>
      </trkpt>
      <trkpt lat="49.95296" lon="2.19042">
        <ele>59.9</ele>
        <time>2012-11-25T11:26:13Z</time>
      </trkpt>
      <trkpt lat="49.95283" lon="2.1903">
        <ele>59.3</ele>
        <time>2012-11-25T11:26:25Z</time>
      </trkpt>
      <trkpt lat="49.95272" lon="2.19019">
        <ele>58.8</ele>
        <time>2012-11-25T11:26:35Z</time>
      </trkpt>
      <trkpt lat="49.95258" lon="2.19007">
        <ele>58.1</ele>
        <time>2012-11-25T11:26:48Z</time>
      </trkpt>
      <trkpt lat="49.95246" lon="2.18994">
        <ele>57.6</ele>
        <time>2012-11-25T11:26:57Z</time>
      </trkpt>
      <trkpt lat="49.95234" lon="2.18985">
        <ele>56.9</ele>
        <time>2012-11-25T11:27:08Z</time>
      </trkpt>
      <trkpt lat="49.95222" lon="2.18974">
        <ele>55.9</ele>
        <time>2012-11-25T11:27:18Z</time>
      </trkpt>
      <trkpt lat="49.9521" lon="2.18964">
        <ele>54.9</ele>
        <time>2012-11-25T11:27:28Z</time>
      </trkpt>
      <trkpt lat="49.95198" lon="2.18951">
        <ele>53.5</ele>
        <time>2012-11-25T11:27:41Z</time>
      </trkpt>
      <trkpt lat="49.95185" lon="2.18941">
        <ele>55.2</ele>
        <time>2012-11-25T11:27:51Z</time>
      </trkpt>
      <trkpt lat="49.95173" lon="2.18929">
        <ele>57.7</ele>
        <time>2012-11-25T11:28:01Z</time>
      </trkpt>
      <trkpt lat="49.9516" lon="2.18917">
        <ele>56.9</ele>
        <time>2012-11-25T11:28:13Z</time>
      </trkpt>
      <trkpt lat="49.95147" lon="2.18906">
        <ele>56.1</ele>
        <time>2012-11-25T11:28:24Z</time>
      </trkpt>
      <trkpt lat="49.95136" lon="2.18894">
        <ele>55.4</ele>
        <time>2012-11-25T11:28:34Z</time>
      </trkpt>
      <trkpt lat="49.95124" lon="2.18907">
        <ele>54.5</ele>
        <time>2012-11-25T11:28:46Z</time>
      </trkpt>
      <trkpt lat="49.95118" lon="2.18928">
        <ele>54.7</ele>
        <time>2012-11-25T11:28:56Z</time>
      </trkpt>
      <trkpt lat="49.95111" lon="2.18948">
        <ele>57.1</ele>
        <time>2012-11-25T11:29:07Z</time>
      </trkpt>
      <trkpt lat="49.95104" lon="2.18968">
        <ele>54.7</ele>
        <time>2012-11-25T11:29:18Z</time>
      </trkpt>
      <trkpt lat="49.95098" lon="2.18988">
        <ele>56.5</ele>
        <time>2012-11-25T11:29:28Z</time>
      </trkpt>
      <trkpt lat="49.95092" lon="2.19008">
        <ele>58</ele>
        <time>2012-11-25T11:29:38Z</time>
      </trkpt>
      <trkpt lat="49.95084" lon="2.19026">
        <ele>57.5</ele>
        <time>2012-11-25T11:29:47Z</time>
      </trkpt>
      <trkpt lat="49.95077" lon="2.19046">
        <ele>57</ele>
        <time>2012-11-25T11:29:57Z</time>
      </trkpt>
      <trkpt lat="49.9507" lon="2.19066">
        <ele>56.4</ele>
        <time>2012-11-25T11:30:08Z</time>
      </trkpt>
      <trkpt lat="49.95063" lon="2.19083">
        <ele>56</ele>
        <time>2012-11-25T11:30:17Z</time>
      </trkpt>
      <trkpt lat="49.95056" lon="2.19102">
        <ele>55.5</ele>
        <time>2012-11-25T11:30:26Z</time>
      </trkpt>
      <trkpt lat="49.95048" lon="2.19119">
        <ele>55</ele>
        <time>2012-11-25T11:30:35Z</time>
      </trkpt>
      <trkpt lat="49.95041" lon="2.19139">
        <ele>54.5</ele>
        <time>2012-11-25T11:30:44Z</time>
      </trkpt>
      <trkpt lat="49.95034" lon="2.19156">
        <ele>55.6</ele>
        <time>2012-11-25T11:30:54Z</time>
      </trkpt>
      <trkpt lat="49.95027" lon="2.19175">
        <ele>57.6</ele>
        <time>2012-11-25T11:31:03Z</time>
      </trkpt>
      <trkpt lat="49.95021" lon="2.19195">
        <ele>56.4</ele>
        <time>2012-11-25T11:31:13Z</time>
      </trkpt>
      <trkpt lat="49.95013" lon="2.19214">
        <ele>54.3</ele>
        <time>2012-11-25T11:31:24Z</time>
      </trkpt>
      <trkpt lat="49.95006" lon="2.19233">
        <ele>53.2</ele>
        <time>2012-11-25T11:31:33Z</time>
      </trkpt>
      <trkpt lat="49.94999" lon="2.19253">
        <ele>51.7</ele>
        <time>2012-11-25T11:31:45Z</time>
      </trkpt>
      <trkpt lat="49.94992" lon="2.19271">
        <ele>51.2</ele>
        <time>2012-11-25T11:31:53Z</time>
      </trkpt>
      <trkpt lat="49.94984" lon="2.1929">
        <ele>53.2</ele>
        <time>2012-11-25T11:32:01Z</time>
      </trkpt>
      <trkpt lat="49.94977" lon="2.19307">
        <ele>55.3</ele>
        <time>2012-11-25T11:32:11Z</time>
      </trkpt>
      <trkpt lat="49.94971" lon="2.19328">
        <ele>54.3</ele>
        <time>2012-11-25T11:32:21Z</time>
      </trkpt>
      <trkpt lat="49.94964" lon="2.19348">
        <ele>53.3</ele>
        <time>2012-11-25T11:32:31Z</time>
      </trkpt>
      <trkpt lat="49.94957" lon="2.19369">
        <ele>52.3</ele>
        <time>2012-11-25T11:32:41Z</time>
      </trkpt>
      <trkpt lat="49.94951" lon="2.19388">
        <ele>52.1</ele>
        <time>2012-11-25T11:32:50Z</time>
      </trkpt>
      <trkpt lat="49.94943" lon="2.19407">
        <ele>53.9</ele>
        <time>2012-11-25T11:33:01Z</time>
      </trkpt>
      <trkpt lat="49.94936" lon="2.19426">
        <ele>54.9</ele>
        <time>2012-11-25T11:33:10Z</time>
      </trkpt>
      <trkpt lat="49.94929" lon="2.19446">
        <ele>51.5</ele>
        <time>2012-11-25T11:33:21Z</time>
      </trkpt>
      <trkpt lat="49.94922" lon="2.19465">
        <ele>49.9</ele>
        <time>2012-11-25T11:33:32Z</time>
      </trkpt>
      <trkpt lat="49.94916" lon="2.19484">
        <ele>49.4</ele>
        <time>2012-11-25T11:33:42Z</time>
      </trkpt>
      <trkpt lat="49.94909" lon="2.19503">
        <ele>48.9</ele>
        <time>2012-11-25T11:33:52Z</time>
      </trkpt>
      <trkpt lat="49.94899" lon="2.1952">
        <ele>48.3</ele>
        <time>2012-11-25T11:34:03Z</time>
      </trkpt>
      <trkpt lat="49.94889" lon="2.19537">
        <ele>47.8</ele>
        <time>2012-11-25T11:34:12Z</time>
      </trkpt>
      <trkpt lat="49.9488" lon="2.19553">
        <ele>47.4</ele>
        <time>2012-11-25T11:34:21Z</time>
      </trkpt>
      <trkpt lat="49.9487" lon="2.19567">
        <ele>46.9</ele>
        <time>2012-11-25T11:34:30Z</time>
      </trkpt>
      <trkpt lat="49.94859" lon="2.19583">
        <ele>49.1</ele>
        <time>2012-11-25T11:34:40Z</time>
      </trkpt>
      <trkpt lat="49.94848" lon="2.19598">
        <ele>50.3</ele>
        <time>2012-11-25T11:34:50Z</time>
      </trkpt>
      <trkpt lat="49.94837" lon="2.19612">
        <ele>50.8</ele>
        <time>2012-11-25T11:35:01Z</time>
      </trkpt>
      <trkpt lat="49.94827" lon="2.19628">
        <ele>51.4</ele>
        <time>2012-11-25T11:35:12Z</time>
      </trkpt>
      <trkpt lat="49.94817" lon="2.19644">
        <ele>51.9</ele>
        <time>2012-11-25T11:35:21Z</time>
      </trkpt>
      <trkpt lat="49.94808" lon="2.19659">
        <ele>52.4</ele>
        <time>2012-11-25T11:35:30Z</time>
      </trkpt>
      <trkpt lat="49.94798" lon="2.19675">
        <ele>52.9</ele>
        <time>2012-11-25T11:35:40Z</time>
      </trkpt>
      <trkpt lat="49.9479" lon="2.19691">
        <ele>51</ele>
        <time>2012-11-25T11:35:49Z</time>
      </trkpt>
      <trkpt lat="49.9478" lon="2.19708">
        <ele>49.2</ele>
        <time>2012-11-25T11:36:00Z</time>
      </trkpt>
      <trkpt lat="49.94771" lon="2.19725">
        <ele>48.7</ele>
        <time>2012-11-25T11:36:11Z</time>
      </trkpt>
      <trkpt lat="49.94763" lon="2.19742">
        <ele>48.4</ele>
        <time>2012-11-25T11:36:20Z</time>
      </trkpt>
      <trkpt lat="49.94754" lon="2.19759">
        <ele>48</ele>
        <time>2012-11-25T11:36:30Z</time>
      </trkpt>
      <trkpt lat="49.94745" lon="2.19776">
        <ele>47.6</ele>
        <time>2012-11-25T11:36:39Z</time>
      </trkpt>
      <trkpt lat="49.94735" lon="2.19791">
        <ele>47.2</ele>
        <time>2012-11-25T11:36:49Z</time>
      </trkpt>
      <trkpt lat="49.94725" lon="2.19807">
        <ele>46.9</ele>
        <time>2012-11-25T11:36:59Z</time>
      </trkpt>
      <trkpt lat="49.94716" lon="2.19824">
        <ele>46.5</ele>
        <time>2012-11-25T11:37:09Z</time>
      </trkpt>
      <trkpt lat="49.94707" lon="2.19839">
        <ele>46.1</ele>
        <time>2012-11-25T11:37:19Z</time>
      </trkpt>
      <trkpt lat="49.94696" lon="2.19856">
        <ele>45.7</ele>
        <time>2012-11-25T11:37:28Z</time>
      </trkpt>
      <trkpt lat="49.94686" lon="2.19871">
        <ele>45.3</ele>
        <time>2012-11-25T11:37:38Z</time>
      </trkpt>
      <trkpt lat="49.94676" lon="2.19886">
        <ele>45</ele>
        <time>2012-11-25T11:37:47Z</time>
      </trkpt>
      <trkpt lat="49.94669" lon="2.19904">
        <ele>44.6</ele>
        <time>2012-11-25T11:37:56Z</time>
      </trkpt>
      <trkpt lat="49.9466" lon="2.1992">
        <ele>44.2</ele>
        <time>2012-11-25T11:38:06Z</time>
      </trkpt>
      <trkpt lat="49.94651" lon="2.19938">
        <ele>45.3</ele>
        <time>2012-11-25T11:38:17Z</time>
      </trkpt>
      <trkpt lat="49.94643" lon="2.19956">
        <ele>46.5</ele>
        <time>2012-11-25T11:38:27Z</time>
      </trkpt>
      <trkpt lat="49.94635" lon="2.19974">
        <ele>47.7</ele>
        <time>2012-11-25T11:38:36Z</time>
      </trkpt>
      <trkpt lat="49.94626" lon="2.19991">
        <ele>46</ele>
        <time>2012-11-25T11:38:46Z</time>
      </trkpt>
      <trkpt lat="49.94618" lon="2.2001">
        <ele>43.4</ele>
        <time>2012-11-25T11:38:56Z</time>
      </trkpt>
      <trkpt lat="49.94611" lon="2.20029">
        <ele>42.3</ele>
        <time>2012-11-25T11:39:07Z</time>
      </trkpt>
      <trkpt lat="49.94603" lon="2.20047">
        <ele>41.3</ele>
        <time>2012-11-25T11:39:16Z</time>
      </trkpt>
      <trkpt lat="49.94596" lon="2.20066">
        <ele>40.3</ele>
        <time>2012-11-25T11:39:26Z</time>
      </trkpt>
      <trkpt lat="49.9459" lon="2.20086">
        <ele>42.2</ele>
        <time>2012-11-25T11:39:36Z</time>
      </trkpt>
      <trkpt lat="49.94583" lon="2.20106">
        <ele>41.8</ele>
        <time>2012-11-25T11:39:48Z</time>
      </trkpt>
      <trkpt lat="49.94576" lon="2.20124">
        <ele>40.1</ele>
        <time>2012-11-25T11:39:58Z</time>
      </trkpt>
      <trkpt lat="49.94569" lon="2.20144">
        <ele>39.6</ele>
        <time>2012-11-25T11:40:08Z</time>
      </trkpt>
      <trkpt lat="49.94562" lon="2.20164">
        <ele>38.9</ele>
        <time>2012-11-25T11:40:21Z</time>
      </trkpt>
      <trkpt lat="49.94552" lon="2.20179">
        <ele>39</ele>
        <time>2012-11-25T11:40:30Z</time>
      </trkpt>
      <trkpt lat="49.94538" lon="2.20173">
        <ele>41.2</ele>
        <time>2012-11-25T11:40:41Z</time>
      </trkpt>
      <trkpt lat="49.94526" lon="2.20162">
        <ele>40.5</ele>
        <time>2012-11-25T11:40:51Z</time>
      </trkpt>
      <trkpt lat="49.94513" lon="2.20153">
        <ele>39.7</ele>
        <time>2012-11-25T11:41:00Z</time>
      </trkpt>
      <trkpt lat="49.94499" lon="2.20144">
        <ele>39</ele>
        <time>2012-11-25T11:41:10Z</time>
      </trkpt>
      <trkpt lat="49.94486" lon="2.20136">
        <ele>38.2</ele>
        <time>2012-11-25T11:41:20Z</time>
      </trkpt>
      <trkpt lat="49.94474" lon="2.20123">
        <ele>37.3</ele>
        <time>2012-11-25T11:41:31Z</time>
      </trkpt>
      <trkpt lat="49.94461" lon="2.20114">
        <ele>37.3</ele>
        <time>2012-11-25T11:41:42Z</time>
      </trkpt>
      <trkpt lat="49.94448" lon="2.20105">
        <ele>39.6</ele>
        <time>2012-11-25T11:41:52Z</time>
      </trkpt>
      <trkpt lat="49.94435" lon="2.20094">
        <ele>36.7</ele>
        <time>2012-11-25T11:42:03Z</time>
      </trkpt>
      <trkpt lat="49.94422" lon="2.20082">
        <ele>34.7</ele>
        <time>2012-11-25T11:42:14Z</time>
      </trkpt>
      <trkpt lat="49.9441" lon="2.2007">
        <ele>33.4</ele>
        <time>2012-11-25T11:42:23Z</time>
      </trkpt>
      <trkpt lat="49.94397" lon="2.2006">
        <ele>30.5</ele>
        <time>2012-11-25T11:42:33Z</time>
      </trkpt>
      <trkpt lat="49.94385" lon="2.20049">
        <ele>30.8</ele>
        <time>2012-11-25T11:42:43Z</time>
      </trkpt>
      <trkpt lat="49.94372" lon="2.20039">
        <ele>27.9</ele>
        <time>2012-11-25T11:42:52Z</time>
      </trkpt>
      <trkpt lat="49.9436" lon="2.20028">
        <ele>25.5</ele>
        <time>2012-11-25T11:43:03Z</time>
      </trkpt>
      <trkpt lat="49.94348" lon="2.20017">
        <ele>28.8</ele>
        <time>2012-11-25T11:43:14Z</time>
      </trkpt>
      <trkpt lat="49.94335" lon="2.20009">
        <ele>24.3</ele>
        <time>2012-11-25T11:43:23Z</time>
      </trkpt>
      <trkpt lat="49.94322" lon="2.20002">
        <ele>26.6</ele>
        <time>2012-11-25T11:43:31Z</time>
      </trkpt>
      <trkpt lat="49.94309" lon="2.19996">
        <ele>27.6</ele>
        <time>2012-11-25T11:43:39Z</time>
      </trkpt>
      <trkpt lat="49.94295" lon="2.19988">
        <ele>23.9</ele>
        <time>2012-11-25T11:43:48Z</time>
      </trkpt>
      <trkpt lat="49.94281" lon="2.1998">
        <ele>23.9</ele>
        <time>2012-11-25T11:43:57Z</time>
      </trkpt>
      <trkpt lat="49.94269" lon="2.19971">
        <ele>24.4</ele>
        <time>2012-11-25T11:44:08Z</time>
      </trkpt>
      <trkpt lat="49.94256" lon="2.19962">
        <ele>23.8</ele>
        <time>2012-11-25T11:44:19Z</time>
      </trkpt>
      <trkpt lat="49.94242" lon="2.19955">
        <ele>23.2</ele>
        <time>2012-11-25T11:44:29Z</time>
      </trkpt>
      <trkpt lat="49.94227" lon="2.19944">
        <ele>22.6</ele>
        <time>2012-11-25T11:44:39Z</time>
      </trkpt>
      <trkpt lat="49.94214" lon="2.19936">
        <ele>22</ele>
        <time>2012-11-25T11:44:49Z</time>
      </trkpt>
      <trkpt lat="49.942" lon="2.19929">
        <ele>20</ele>
        <time>2012-11-25T11:44:59Z</time>
      </trkpt>
      <trkpt lat="49.94188" lon="2.19919">
        <ele>17.6</ele>
        <time>2012-11-25T11:45:09Z</time>
      </trkpt>
      <trkpt lat="49.94174" lon="2.1991">
        <ele>17.9</ele>
        <time>2012-11-25T11:45:20Z</time>
      </trkpt>
      <trkpt lat="49.94158" lon="2.19899">
        <ele>17.8</ele>
        <time>2012-11-25T11:45:31Z</time>
      </trkpt>
      <trkpt lat="49.94145" lon="2.19892">
        <ele>16.7</ele>
        <time>2012-11-25T11:45:42Z</time>
      </trkpt>
      <trkpt lat="49.94131" lon="2.19896">
        <ele>15.6</ele>
        <time>2012-11-25T11:45:52Z</time>
      </trkpt>
      <trkpt lat="49.94126" lon="2.19916">
        <ele>16.6</ele>
        <time>2012-11-25T11:46:00Z</time>
      </trkpt>
      <trkpt lat="49.94121" lon="2.19936">
        <ele>20.2</ele>
        <time>2012-11-25T11:46:10Z</time>
      </trkpt>
      <trkpt lat="49.94119" lon="2.19957">
        <ele>21.4</ele>
        <time>2012-11-25T11:46:21Z</time>
      </trkpt>
      <trkpt lat="49.94116" lon="2.19978">
        <ele>19.3</ele>
        <time>2012-11-25T11:46:31Z</time>
      </trkpt>
      <trkpt lat="49.94112" lon="2.2">
        <ele>18.4</ele>
        <time>2012-11-25T11:46:42Z</time>
      </trkpt>
      <trkpt lat="49.94107" lon="2.2002">
        <ele>17.1</ele>
        <time>2012-11-25T11:46:53Z</time>
      </trkpt>
      <trkpt lat="49.94103" lon="2.20041">
        <ele>16.6</ele>
        <time>2012-11-25T11:47:07Z</time>
      </trkpt>
      <trkpt lat="49.94098" lon="2.20062">
        <ele>16.1</ele>
        <time>2012-11-25T11:47:20Z</time>
      </trkpt>
      <trkpt lat="49.94093" lon="2.20084">
        <ele>15.5</ele>
        <time>2012-11-25T11:47:34Z</time>
      </trkpt>
      <trkpt lat="49.94086" lon="2.20103">
        <ele>15.2</ele>
        <time>2012-11-25T11:47:43Z</time>
      </trkpt>
      <trkpt lat="49.9408" lon="2.20124">
        <ele>14.6</ele>
        <time>2012-11-25T11:47:57Z</time>
      </trkpt>
      <trkpt lat="49.94074" lon="2.20142">
        <ele>14.2</ele>
        <time>2012-11-25T11:48:08Z</time>
      </trkpt>
      <trkpt lat="49.94068" lon="2.20162">
        <ele>15.1</ele>
        <time>2012-11-25T11:48:20Z</time>
      </trkpt>
      <trkpt lat="49.94062" lon="2.20183">
        <ele>16</ele>
        <time>2012-11-25T11:48:32Z</time>
      </trkpt>
      <trkpt lat="49.94054" lon="2.20201">
        <ele>16.9</ele>
        <time>2012-11-25T11:48:43Z</time>
      </trkpt>
      <trkpt lat="49.94049" lon="2.20221">
        <ele>17.7</ele>
        <time>2012-11-25T11:48:54Z</time>
      </trkpt>
      <trkpt lat="49.94044" lon="2.20243">
        <ele>16</ele>
        <time>2012-11-25T11:49:03Z</time>
      </trkpt>
      <trkpt lat="49.9404" lon="2.20265">
        <ele>15.1</ele>
        <time>2012-11-25T11:49:15Z</time>
      </trkpt>
      <trkpt lat="49.94035" lon="2.20287">
        <ele>14.8</ele>
        <time>2012-11-25T11:49:25Z</time>
      </trkpt>
      <trkpt lat="49.94029" lon="2.20306">
        <ele>15.1</ele>
        <time>2012-11-25T11:49:33Z</time>
      </trkpt>
      <trkpt lat="49.94024" lon="2.20331">
        <ele>17.8</ele>
        <time>2012-11-25T11:49:43Z</time>
      </trkpt>
      <trkpt lat="49.94018" lon="2.20353">
        <ele>18.7</ele>
        <time>2012-11-25T11:49:54Z</time>
      </trkpt>
      <trkpt lat="49.94014" lon="2.20375">
        <ele>19.7</ele>
        <time>2012-11-25T11:50:08Z</time>
      </trkpt>
      <trkpt lat="49.9401" lon="2.20396">
        <ele>20.4</ele>
        <time>2012-11-25T11:50:17Z</time>
      </trkpt>
      <trkpt lat="49.94005" lon="2.20416">
        <ele>21.1</ele>
        <time>2012-11-25T11:50:25Z</time>
      </trkpt>
      <trkpt lat="49.94001" lon="2.20437">
        <ele>22.1</ele>
        <time>2012-11-25T11:50:34Z</time>
      </trkpt>
      <trkpt lat="49.93997" lon="2.20457">
        <ele>23.3</ele>
        <time>2012-11-25T11:50:44Z</time>
      </trkpt>
      <trkpt lat="49.9399" lon="2.20477">
        <ele>24.6</ele>
        <time>2012-11-25T11:50:55Z</time>
      </trkpt>
      <trkpt lat="49.93985" lon="2.20497">
        <ele>25.6</ele>
        <time>2012-11-25T11:51:03Z</time>
      </trkpt>
      <trkpt lat="49.93981" lon="2.20517">
        <ele>26.7</ele>
        <time>2012-11-25T11:51:13Z</time>
      </trkpt>
      <trkpt lat="49.93976" lon="2.2054">
        <ele>27.3</ele>
        <time>2012-11-25T11:51:21Z</time>
      </trkpt>
      <trkpt lat="49.93972" lon="2.2056">
        <ele>26.6</ele>
        <time>2012-11-25T11:51:31Z</time>
      </trkpt>
      <trkpt lat="49.93967" lon="2.2058">
        <ele>23.1</ele>
        <time>2012-11-25T11:51:43Z</time>
      </trkpt>
      <trkpt lat="49.93963" lon="2.206">
        <ele>22.6</ele>
        <time>2012-11-25T11:51:52Z</time>
      </trkpt>
      <trkpt lat="49.93957" lon="2.20621">
        <ele>22.3</ele>
        <time>2012-11-25T11:52:02Z</time>
      </trkpt>
      <trkpt lat="49.93952" lon="2.20642">
        <ele>21.5</ele>
        <time>2012-11-25T11:52:14Z</time>
      </trkpt>
      <trkpt lat="49.93951" lon="2.20663">
        <ele>18.8</ele>
        <time>2012-11-25T11:52:26Z</time>
      </trkpt>
      <trkpt lat="49.93957" lon="2.2067">
        <ele>19.7</ele>
        <time>2012-11-25T11:52:32Z</time>
      </trkpt>
      <trkpt lat="49.93946" lon="2.20685">
        <ele>22.1</ele>
        <time>2012-11-25T11:52:49Z</time>
      </trkpt>
      <trkpt lat="49.93946" lon="2.20685">
        <ele>22.1</ele>
        <time>2012-11-25T11:54:18Z</time>
      </trkpt>
      <trkpt lat="49.93942" lon="2.2068">
        <ele>22.2</ele>
        <time>2012-11-25T11:54:22Z</time>
      </trkpt>
      <trkpt lat="49.93942" lon="2.20658">
        <ele>20</ele>
        <time>2012-11-25T11:54:33Z</time>
      </trkpt>
      <trkpt lat="49.93934" lon="2.20647">
        <ele>18.9</ele>
        <time>2012-11-25T11:54:41Z</time>
      </trkpt>
      <trkpt lat="49.93938" lon="2.20625">
        <ele>19.1</ele>
        <time>2012-11-25T11:54:51Z</time>
      </trkpt>
      <trkpt lat="49.93943" lon="2.20604">
        <ele>23.1</ele>
        <time>2012-11-25T11:55:02Z</time>
      </trkpt>
      <trkpt lat="49.93941" lon="2.20583">
        <ele>20.3</ele>
        <time>2012-11-25T11:55:12Z</time>
      </trkpt>
      <trkpt lat="49.93928" lon="2.20571">
        <ele>19.4</ele>
        <time>2012-11-25T11:55:23Z</time>
      </trkpt>
      <trkpt lat="49.93913" lon="2.2056">
        <ele>17</ele>
        <time>2012-11-25T11:55:34Z</time>
      </trkpt>
      <trkpt lat="49.93896" lon="2.20549">
        <ele>15.5</ele>
        <time>2012-11-25T11:55:46Z</time>
      </trkpt>
      <trkpt lat="49.93882" lon="2.20539">
        <ele>18.9</ele>
        <time>2012-11-25T11:56:00Z</time>
      </trkpt>
      <trkpt lat="49.93869" lon="2.20531">
        <ele>17.6</ele>
        <time>2012-11-25T11:56:11Z</time>
      </trkpt>
      <trkpt lat="49.93863" lon="2.20512">
        <ele>14</ele>
        <time>2012-11-25T11:56:22Z</time>
      </trkpt>
      <trkpt lat="49.93865" lon="2.20489">
        <ele>17.1</ele>
        <time>2012-11-25T11:56:32Z</time>
      </trkpt>
      <trkpt lat="49.93865" lon="2.20467">
        <ele>18</ele>
        <time>2012-11-25T11:56:41Z</time>
      </trkpt>
      <trkpt lat="49.93854" lon="2.20454">
        <ele>17.3</ele>
        <time>2012-11-25T11:56:51Z</time>
      </trkpt>
      <trkpt lat="49.93843" lon="2.20439">
        <ele>16.7</ele>
        <time>2012-11-25T11:57:00Z</time>
      </trkpt>
      <trkpt lat="49.9383" lon="2.20428">
        <ele>16</ele>
        <time>2012-11-25T11:57:10Z</time>
      </trkpt>
      <trkpt lat="49.93815" lon="2.20412">
        <ele>15.4</ele>
        <time>2012-11-25T11:57:20Z</time>
      </trkpt>
      <trkpt lat="49.93805" lon="2.20397">
        <ele>14.1</ele>
        <time>2012-11-25T11:57:31Z</time>
      </trkpt>
      <trkpt lat="49.93797" lon="2.2038">
        <ele>9.7</ele>
        <time>2012-11-25T11:57:42Z</time>
      </trkpt>
      <trkpt lat="49.93787" lon="2.20356">
        <ele>1.1</ele>
        <time>2012-11-25T11:57:53Z</time>
      </trkpt>
      <trkpt lat="49.93779" lon="2.20336">
        <ele>7.4</ele>
        <time>2012-11-25T11:58:06Z</time>
      </trkpt>
      <trkpt lat="49.93767" lon="2.20326">
        <ele>9.1</ele>
        <time>2012-11-25T11:58:13Z</time>
      </trkpt>
      <trkpt lat="49.93755" lon="2.20315">
        <ele>12.7</ele>
        <time>2012-11-25T11:58:23Z</time>
      </trkpt>
      <trkpt lat="49.93743" lon="2.20302">
        <ele>13.5</ele>
        <time>2012-11-25T11:58:34Z</time>
      </trkpt>
      <trkpt lat="49.93737" lon="2.20283">
        <ele>11.5</ele>
        <time>2012-11-25T11:58:47Z</time>
      </trkpt>
      <trkpt lat="49.93739" lon="2.20262">
        <ele>10.9</ele>
        <time>2012-11-25T11:58:57Z</time>
      </trkpt>
      <trkpt lat="49.93726" lon="2.20254">
        <ele>13.8</ele>
        <time>2012-11-25T11:59:14Z</time>
      </trkpt>
      <trkpt lat="49.9371" lon="2.20254">
        <ele>9.9</ele>
        <time>2012-11-25T11:59:25Z</time>
      </trkpt>
      <trkpt lat="49.93696" lon="2.20244">
        <ele>9.3</ele>
        <time>2012-11-25T11:59:35Z</time>
      </trkpt>
      <trkpt lat="49.93686" lon="2.2023">
        <ele>5.2</ele>
        <time>2012-11-25T11:59:46Z</time>
      </trkpt>
      <trkpt lat="49.93676" lon="2.20215">
        <ele>1.5</ele>
        <time>2012-11-25T11:59:58Z</time>
      </trkpt>
      <trkpt lat="49.93664" lon="2.20199">
        <ele>8.3</ele>
        <time>2012-11-25T12:00:08Z</time>
      </trkpt>
      <trkpt lat="49.93653" lon="2.20186">
        <ele>10.6</ele>
        <time>2012-11-25T12:00:14Z</time>
      </trkpt>
      <trkpt lat="49.93641" lon="2.20173">
        <ele>14.2</ele>
        <time>2012-11-25T12:00:24Z</time>
      </trkpt>
      <trkpt lat="49.93628" lon="2.20161">
        <ele>9.1</ele>
        <time>2012-11-25T12:00:38Z</time>
      </trkpt>
      <trkpt lat="49.93616" lon="2.2015">
        <ele>7.1</ele>
        <time>2012-11-25T12:00:52Z</time>
      </trkpt>
      <trkpt lat="49.93603" lon="2.20137">
        <ele>4.9</ele>
        <time>2012-11-25T12:01:02Z</time>
      </trkpt>
      <trkpt lat="49.93591" lon="2.20128">
        <ele>6.5</ele>
        <time>2012-11-25T12:01:14Z</time>
      </trkpt>
      <trkpt lat="49.9358" lon="2.20117">
        <ele>4.5</ele>
        <time>2012-11-25T12:01:28Z</time>
      </trkpt>
      <trkpt lat="49.93568" lon="2.20103">
        <ele>2.1</ele>
        <time>2012-11-25T12:01:38Z</time>
      </trkpt>
      <trkpt lat="49.93559" lon="2.20097">
        <ele>4.2</ele>
        <time>2012-11-25T12:01:42Z</time>
      </trkpt>
      <trkpt lat="49.93555" lon="2.20098">
        <ele>5.2</ele>
        <time>2012-11-25T12:01:44Z</time>
      </trkpt>
      <trkpt lat="49.93543" lon="2.20117">
        <ele>6.3</ele>
        <time>2012-11-25T12:01:53Z</time>
      </trkpt>
      <trkpt lat="49.93532" lon="2.20128">
        <ele>3.5</ele>
        <time>2012-11-25T12:02:07Z</time>
      </trkpt>
      <trkpt lat="49.93523" lon="2.20144">
        <ele>15.7</ele>
        <time>2012-11-25T12:02:21Z</time>
      </trkpt>
      <trkpt lat="49.93508" lon="2.20161">
        <ele>2.4</ele>
        <time>2012-11-25T12:02:29Z</time>
      </trkpt>
      <trkpt lat="49.935" lon="2.20171">
        <ele>8.3</ele>
        <time>2012-11-25T12:02:41Z</time>
      </trkpt>
      <trkpt lat="49.93492" lon="2.20189">
        <ele>8.1</ele>
        <time>2012-11-25T12:02:45Z</time>
      </trkpt>
      <trkpt lat="49.93482" lon="2.20205">
        <ele>6.7</ele>
        <time>2012-11-25T12:03:01Z</time>
      </trkpt>
      <trkpt lat="49.93472" lon="2.20222">
        <ele>8.3</ele>
        <time>2012-11-25T12:03:04Z</time>
      </trkpt>
      <trkpt lat="49.93461" lon="2.20236">
        <ele>8.2</ele>
        <time>2012-11-25T12:03:14Z</time>
      </trkpt>
      <trkpt lat="49.93448" lon="2.20249">
        <ele>3.7</ele>
        <time>2012-11-25T12:03:26Z</time>
      </trkpt>
      <trkpt lat="49.93437" lon="2.20265">
        <ele>1</ele>
        <time>2012-11-25T12:03:38Z</time>
      </trkpt>
      <trkpt lat="49.93425" lon="2.20283">
        <ele>4.3</ele>
        <time>2012-11-25T12:03:47Z</time>
      </trkpt>
      <trkpt lat="49.93413" lon="2.20301">
        <ele>10.6</ele>
        <time>2012-11-25T12:03:57Z</time>
      </trkpt>
      <trkpt lat="49.93398" lon="2.20322">
        <ele>5.6</ele>
        <time>2012-11-25T12:04:11Z</time>
      </trkpt>
      <trkpt lat="49.93386" lon="2.20335">
        <ele>4.7</ele>
        <time>2012-11-25T12:04:17Z</time>
      </trkpt>
      <trkpt lat="49.93375" lon="2.20349">
        <ele>2.5</ele>
        <time>2012-11-25T12:04:39Z</time>
      </trkpt>
      <trkpt lat="49.93362" lon="2.20363">
        <ele>9.2</ele>
        <time>2012-11-25T12:04:50Z</time>
      </trkpt>
      <trkpt lat="49.93355" lon="2.20377">
        <ele>3.5</ele>
        <time>2012-11-25T12:04:59Z</time>
      </trkpt>
      <trkpt lat="49.93344" lon="2.20389">
        <ele>0.9</ele>
        <time>2012-11-25T12:05:02Z</time>
      </trkpt>
      <trkpt lat="49.93332" lon="2.20403">
        <ele>1.9</ele>
        <time>2012-11-25T12:05:09Z</time>
      </trkpt>
      <trkpt lat="49.93321" lon="2.20417">
        <ele>4.6</ele>
        <time>2012-11-25T12:05:18Z</time>
      </trkpt>
      <trkpt lat="49.93311" lon="2.2043">
        <ele>8.3</ele>
        <time>2012-11-25T12:05:30Z</time>
      </trkpt>
      <trkpt lat="49.93298" lon="2.2044">
        <ele>12.8</ele>
        <time>2012-11-25T12:05:40Z</time>
      </trkpt>
      <trkpt lat="49.93286" lon="2.2045">
        <ele>12.5</ele>
        <time>2012-11-25T12:05:50Z</time>
      </trkpt>
      <trkpt lat="49.93275" lon="2.20462">
        <ele>9</ele>
        <time>2012-11-25T12:05:59Z</time>
      </trkpt>
      <trkpt lat="49.93262" lon="2.2047">
        <ele>11.2</ele>
        <time>2012-11-25T12:06:09Z</time>
      </trkpt>
      <trkpt lat="49.93249" lon="2.20478">
        <ele>4.1</ele>
        <time>2012-11-25T12:06:20Z</time>
      </trkpt>
      <trkpt lat="49.93237" lon="2.20494">
        <ele>6.5</ele>
        <time>2012-11-25T12:06:31Z</time>
      </trkpt>
      <trkpt lat="49.93226" lon="2.20508">
        <ele>2.5</ele>
        <time>2012-11-25T12:06:38Z</time>
      </trkpt>
      <trkpt lat="49.93218" lon="2.20525">
        <ele>4.1</ele>
        <time>2012-11-25T12:06:48Z</time>
      </trkpt>
      <trkpt lat="49.93208" lon="2.20542">
        <ele>4.1</ele>
        <time>2012-11-25T12:06:56Z</time>
      </trkpt>
      <trkpt lat="49.93202" lon="2.20561">
        <ele>9.1</ele>
        <time>2012-11-25T12:07:05Z</time>
      </trkpt>
      <trkpt lat="49.93194" lon="2.2058">
        <ele>7.7</ele>
        <time>2012-11-25T12:07:13Z</time>
      </trkpt>
      <trkpt lat="49.93187" lon="2.206">
        <ele>9.1</ele>
        <time>2012-11-25T12:07:25Z</time>
      </trkpt>
      <trkpt lat="49.93178" lon="2.20617">
        <ele>10.8</ele>
        <time>2012-11-25T12:07:33Z</time>
      </trkpt>
      <trkpt lat="49.9317" lon="2.20641">
        <ele>14.3</ele>
        <time>2012-11-25T12:07:45Z</time>
      </trkpt>
      <trkpt lat="49.93164" lon="2.20662">
        <ele>15.2</ele>
        <time>2012-11-25T12:08:01Z</time>
      </trkpt>
      <trkpt lat="49.93159" lon="2.20682">
        <ele>11.6</ele>
        <time>2012-11-25T12:08:12Z</time>
      </trkpt>
      <trkpt lat="49.93152" lon="2.20701">
        <ele>8.7</ele>
        <time>2012-11-25T12:08:30Z</time>
      </trkpt>
      <trkpt lat="49.93144" lon="2.2072">
        <ele>9.9</ele>
        <time>2012-11-25T12:08:41Z</time>
      </trkpt>
      <trkpt lat="49.93139" lon="2.20742">
        <ele>10.5</ele>
        <time>2012-11-25T12:08:52Z</time>
      </trkpt>
      <trkpt lat="49.93135" lon="2.20762">
        <ele>8.7</ele>
        <time>2012-11-25T12:09:03Z</time>
      </trkpt>
      <trkpt lat="49.93129" lon="2.20783">
        <ele>8.3</ele>
        <time>2012-11-25T12:09:14Z</time>
      </trkpt>
      <trkpt lat="49.93124" lon="2.20804">
        <ele>10.2</ele>
        <time>2012-11-25T12:09:25Z</time>
      </trkpt>
      <trkpt lat="49.93119" lon="2.20825">
        <ele>8.2</ele>
        <time>2012-11-25T12:09:35Z</time>
      </trkpt>
      <trkpt lat="49.93116" lon="2.20846">
        <ele>9.4</ele>
        <time>2012-11-25T12:09:45Z</time>
      </trkpt>
      <trkpt lat="49.93113" lon="2.2087">
        <ele>3.5</ele>
        <time>2012-11-25T12:09:54Z</time>
      </trkpt>
      <trkpt lat="49.93111" lon="2.20891">
        <ele>6.5</ele>
        <time>2012-11-25T12:10:04Z</time>
      </trkpt>
      <trkpt lat="49.93111" lon="2.20913">
        <ele>2.5</ele>
        <time>2012-11-25T12:10:15Z</time>
      </trkpt>
      <trkpt lat="49.9311" lon="2.20934">
        <ele>6.9</ele>
        <time>2012-11-25T12:10:24Z</time>
      </trkpt>
      <trkpt lat="49.9311" lon="2.20957">
        <ele>6.2</ele>
        <time>2012-11-25T12:10:34Z</time>
      </trkpt>
      <trkpt lat="49.93107" lon="2.20978">
        <ele>9</ele>
        <time>2012-11-25T12:10:45Z</time>
      </trkpt>
      <trkpt lat="49.93104" lon="2.20998">
        <ele>11.5</ele>
        <time>2012-11-25T12:10:54Z</time>
      </trkpt>
      <trkpt lat="49.931" lon="2.21019">
        <ele>10.6</ele>
        <time>2012-11-25T12:11:03Z</time>
      </trkpt>
      <trkpt lat="49.93095" lon="2.2104">
        <ele>8.2</ele>
        <time>2012-11-25T12:11:14Z</time>
      </trkpt>
      <trkpt lat="49.9309" lon="2.21061">
        <ele>11.8</ele>
        <time>2012-11-25T12:11:22Z</time>
      </trkpt>
      <trkpt lat="49.93083" lon="2.21081">
        <ele>11</ele>
        <time>2012-11-25T12:11:31Z</time>
      </trkpt>
      <trkpt lat="49.93076" lon="2.21101">
        <ele>8.6</ele>
        <time>2012-11-25T12:11:43Z</time>
      </trkpt>
      <trkpt lat="49.9307" lon="2.21122">
        <ele>7</ele>
        <time>2012-11-25T12:11:55Z</time>
      </trkpt>
      <trkpt lat="49.93067" lon="2.21144">
        <ele>5.4</ele>
        <time>2012-11-25T12:12:07Z</time>
      </trkpt>
      <trkpt lat="49.93069" lon="2.21167">
        <ele>1.1</ele>
        <time>2012-11-25T12:12:21Z</time>
      </trkpt>
      <trkpt lat="49.93068" lon="2.21194">
        <ele>15.4</ele>
        <time>2012-11-25T12:12:28Z</time>
      </trkpt>
      <trkpt lat="49.9307" lon="2.21216">
        <ele>15.5</ele>
        <time>2012-11-25T12:12:44Z</time>
      </trkpt>
      <trkpt lat="49.93072" lon="2.21239">
        <ele>1.1</ele>
        <time>2012-11-25T12:12:51Z</time>
      </trkpt>
      <trkpt lat="49.93069" lon="2.21266">
        <ele>2.3</ele>
        <time>2012-11-25T12:12:58Z</time>
      </trkpt>
      <trkpt lat="49.93064" lon="2.21288">
        <ele>4.2</ele>
        <time>2012-11-25T12:13:10Z</time>
      </trkpt>
      <trkpt lat="49.93058" lon="2.21307">
        <ele>5.3</ele>
        <time>2012-11-25T12:13:19Z</time>
      </trkpt>
      <trkpt lat="49.93055" lon="2.21329">
        <ele>6.4</ele>
        <time>2012-11-25T12:13:28Z</time>
      </trkpt>
      <trkpt lat="49.93054" lon="2.21351">
        <ele>11.5</ele>
        <time>2012-11-25T12:13:40Z</time>
      </trkpt>
      <trkpt lat="49.93056" lon="2.21373">
        <ele>10.1</ele>
        <time>2012-11-25T12:13:50Z</time>
      </trkpt>
      <trkpt lat="49.93065" lon="2.2139">
        <ele>8.2</ele>
        <time>2012-11-25T12:14:03Z</time>
      </trkpt>
      <trkpt lat="49.93077" lon="2.2141">
        <ele>6.9</ele>
        <time>2012-11-25T12:14:12Z</time>
      </trkpt>
      <trkpt lat="49.93084" lon="2.21428">
        <ele>8.8</ele>
        <time>2012-11-25T12:14:25Z</time>
      </trkpt>
      <trkpt lat="49.93092" lon="2.21451">
        <ele>9.6</ele>
        <time>2012-11-25T12:14:36Z</time>
      </trkpt>
      <trkpt lat="49.93087" lon="2.21471">
        <ele>9.4</ele>
        <time>2012-11-25T12:14:48Z</time>
      </trkpt>
      <trkpt lat="49.93078" lon="2.2149">
        <ele>12</ele>
        <time>2012-11-25T12:14:56Z</time>
      </trkpt>
      <trkpt lat="49.93068" lon="2.21506">
        <ele>11.5</ele>
        <time>2012-11-25T12:15:07Z</time>
      </trkpt>
      <trkpt lat="49.93058" lon="2.21524">
        <ele>12.4</ele>
        <time>2012-11-25T12:15:19Z</time>
      </trkpt>
      <trkpt lat="49.93049" lon="2.21539">
        <ele>7.8</ele>
        <time>2012-11-25T12:15:29Z</time>
      </trkpt>
      <trkpt lat="49.9304" lon="2.21556">
        <ele>1.4</ele>
        <time>2012-11-25T12:15:42Z</time>
      </trkpt>
      <trkpt lat="49.93031" lon="2.21573">
        <ele>15.6</ele>
        <time>2012-11-25T12:15:54Z</time>
      </trkpt>
      <trkpt lat="49.93024" lon="2.21592">
        <ele>15.6</ele>
        <time>2012-11-25T12:16:04Z</time>
      </trkpt>
      <trkpt lat="49.93015" lon="2.21619">
        <ele>2.3</ele>
        <time>2012-11-25T12:16:11Z</time>
      </trkpt>
      <trkpt lat="49.93004" lon="2.21638">
        <ele>3.5</ele>
        <time>2012-11-25T12:16:16Z</time>
      </trkpt>
      <trkpt lat="49.92993" lon="2.21657">
        <ele>5.5</ele>
        <time>2012-11-25T12:16:30Z</time>
      </trkpt>
      <trkpt lat="49.92984" lon="2.21682">
        <ele>7.2</ele>
        <time>2012-11-25T12:16:41Z</time>
      </trkpt>
      <trkpt lat="49.92973" lon="2.21696">
        <ele>11</ele>
        <time>2012-11-25T12:16:53Z</time>
      </trkpt>
      <trkpt lat="49.92963" lon="2.21711">
        <ele>12.9</ele>
        <time>2012-11-25T12:17:00Z</time>
      </trkpt>
      <trkpt lat="49.92955" lon="2.2173">
        <ele>15.7</ele>
        <time>2012-11-25T12:17:09Z</time>
      </trkpt>
      <trkpt lat="49.92945" lon="2.21746">
        <ele>10.9</ele>
        <time>2012-11-25T12:17:22Z</time>
      </trkpt>
      <trkpt lat="49.92932" lon="2.21764">
        <ele>5</ele>
        <time>2012-11-25T12:17:36Z</time>
      </trkpt>
      <trkpt lat="49.92922" lon="2.2178">
        <ele>2.3</ele>
        <time>2012-11-25T12:17:48Z</time>
      </trkpt>
      <trkpt lat="49.92913" lon="2.21796">
        <ele>7</ele>
        <time>2012-11-25T12:17:58Z</time>
      </trkpt>
      <trkpt lat="49.92904" lon="2.21814">
        <ele>3.8</ele>
        <time>2012-11-25T12:18:10Z</time>
      </trkpt>
      <trkpt lat="49.92893" lon="2.21833">
        <ele>6</ele>
        <time>2012-11-25T12:18:23Z</time>
      </trkpt>
      <trkpt lat="49.92882" lon="2.21846">
        <ele>8.8</ele>
        <time>2012-11-25T12:18:33Z</time>
      </trkpt>
      <trkpt lat="49.92872" lon="2.21861">
        <ele>8.4</ele>
        <time>2012-11-25T12:18:42Z</time>
      </trkpt>
      <trkpt lat="49.92864" lon="2.21879">
        <ele>8.1</ele>
        <time>2012-11-25T12:18:53Z</time>
      </trkpt>
      <trkpt lat="49.92854" lon="2.21895">
        <ele>5.2</ele>
        <time>2012-11-25T12:19:03Z</time>
      </trkpt>
      <trkpt lat="49.92845" lon="2.21912">
        <ele>5.6</ele>
        <time>2012-11-25T12:19:14Z</time>
      </trkpt>
      <trkpt lat="49.92833" lon="2.2193">
        <ele>2</ele>
        <time>2012-11-25T12:19:24Z</time>
      </trkpt>
      <trkpt lat="49.92823" lon="2.21951">
        <ele>7.9</ele>
        <time>2012-11-25T12:19:35Z</time>
      </trkpt>
      <trkpt lat="49.92815" lon="2.21969">
        <ele>2.4</ele>
        <time>2012-11-25T12:19:53Z</time>
      </trkpt>
      <trkpt lat="49.92808" lon="2.21989">
        <ele>6.4</ele>
        <time>2012-11-25T12:20:00Z</time>
      </trkpt>
      <trkpt lat="49.92797" lon="2.22007">
        <ele>9.9</ele>
        <time>2012-11-25T12:20:07Z</time>
      </trkpt>
      <trkpt lat="49.92787" lon="2.22023">
        <ele>5.5</ele>
        <time>2012-11-25T12:20:20Z</time>
      </trkpt>
      <trkpt lat="49.92776" lon="2.22039">
        <ele>10.8</ele>
        <time>2012-11-25T12:20:29Z</time>
      </trkpt>
      <trkpt lat="49.92764" lon="2.2205">
        <ele>11.5</ele>
        <time>2012-11-25T12:20:38Z</time>
      </trkpt>
      <trkpt lat="49.92753" lon="2.22065">
        <ele>11.7</ele>
        <time>2012-11-25T12:20:48Z</time>
      </trkpt>
      <trkpt lat="49.92746" lon="2.22084">
        <ele>11.7</ele>
        <time>2012-11-25T12:20:59Z</time>
      </trkpt>
      <trkpt lat="49.92738" lon="2.22101">
        <ele>8.3</ele>
        <time>2012-11-25T12:21:10Z</time>
      </trkpt>
      <trkpt lat="49.92732" lon="2.22122">
        <ele>6.1</ele>
        <time>2012-11-25T12:21:20Z</time>
      </trkpt>
      <trkpt lat="49.92722" lon="2.22139">
        <ele>5</ele>
        <time>2012-11-25T12:21:31Z</time>
      </trkpt>
      <trkpt lat="49.92711" lon="2.22154">
        <ele>4</ele>
        <time>2012-11-25T12:21:41Z</time>
      </trkpt>
      <trkpt lat="49.92702" lon="2.2217">
        <ele>4.1</ele>
        <time>2012-11-25T12:21:51Z</time>
      </trkpt>
      <trkpt lat="49.92693" lon="2.22188">
        <ele>1.9</ele>
        <time>2012-11-25T12:22:02Z</time>
      </trkpt>
      <trkpt lat="49.92681" lon="2.22207">
        <ele>0.7</ele>
        <time>2012-11-25T12:22:13Z</time>
      </trkpt>
      <trkpt lat="49.92672" lon="2.22222">
        <ele>2.7</ele>
        <time>2012-11-25T12:22:27Z</time>
      </trkpt>
      <trkpt lat="49.9266" lon="2.22246">
        <ele>5.5</ele>
        <time>2012-11-25T12:22:36Z</time>
      </trkpt>
      <trkpt lat="49.9265" lon="2.22264">
        <ele>10</ele>
        <time>2012-11-25T12:22:44Z</time>
      </trkpt>
      <trkpt lat="49.92643" lon="2.22273">
        <ele>10.1</ele>
        <time>2012-11-25T12:23:01Z</time>
      </trkpt>
      <trkpt lat="49.92643" lon="2.22273">
        <ele>10.1</ele>
        <time>2012-11-25T12:23:42Z</time>
      </trkpt>
      <trkpt lat="49.92646" lon="2.22267">
        <ele>7.6</ele>
        <time>2012-11-25T12:23:42Z</time>
      </trkpt>
      <trkpt lat="49.92659" lon="2.2225">
        <ele>11.2</ele>
        <time>2012-11-25T12:23:51Z</time>
      </trkpt>
      <trkpt lat="49.92671" lon="2.22234">
        <ele>2.7</ele>
        <time>2012-11-25T12:24:04Z</time>
      </trkpt>
      <trkpt lat="49.92678" lon="2.22216">
        <ele>8.2</ele>
        <time>2012-11-25T12:24:16Z</time>
      </trkpt>
      <trkpt lat="49.92686" lon="2.22197">
        <ele>8.2</ele>
        <time>2012-11-25T12:24:26Z</time>
      </trkpt>
      <trkpt lat="49.92697" lon="2.2218">
        <ele>10.3</ele>
        <time>2012-11-25T12:24:37Z</time>
      </trkpt>
      <trkpt lat="49.92705" lon="2.22162">
        <ele>9.7</ele>
        <time>2012-11-25T12:24:47Z</time>
      </trkpt>
      <trkpt lat="49.92716" lon="2.22146">
        <ele>7.8</ele>
        <time>2012-11-25T12:24:58Z</time>
      </trkpt>
      <trkpt lat="49.92724" lon="2.2213">
        <ele>8.1</ele>
        <time>2012-11-25T12:25:07Z</time>
      </trkpt>
      <trkpt lat="49.92732" lon="2.22112">
        <ele>12.9</ele>
        <time>2012-11-25T12:25:17Z</time>
      </trkpt>
      <trkpt lat="49.92741" lon="2.22094">
        <ele>13.1</ele>
        <time>2012-11-25T12:25:29Z</time>
      </trkpt>
      <trkpt lat="49.9275" lon="2.22076">
        <ele>12.7</ele>
        <time>2012-11-25T12:25:40Z</time>
      </trkpt>
      <trkpt lat="49.92758" lon="2.22059">
        <ele>12.4</ele>
        <time>2012-11-25T12:25:51Z</time>
      </trkpt>
      <trkpt lat="49.92769" lon="2.22044">
        <ele>11.9</ele>
        <time>2012-11-25T12:26:03Z</time>
      </trkpt>
      <trkpt lat="49.9278" lon="2.22028">
        <ele>11.6</ele>
        <time>2012-11-25T12:26:14Z</time>
      </trkpt>
      <trkpt lat="49.92793" lon="2.2202">
        <ele>9.7</ele>
        <time>2012-11-25T12:26:27Z</time>
      </trkpt>
      <trkpt lat="49.92803" lon="2.22005">
        <ele>8</ele>
        <time>2012-11-25T12:26:37Z</time>
      </trkpt>
      <trkpt lat="49.92809" lon="2.21996">
        <ele>6.4</ele>
        <time>2012-11-25T12:26:49Z</time>
      </trkpt>
      <trkpt lat="49.9282" lon="2.22011">
        <ele>4.8</ele>
        <time>2012-11-25T12:27:04Z</time>
      </trkpt>
      <trkpt lat="49.92829" lon="2.2203">
        <ele>16</ele>
        <time>2012-11-25T12:27:27Z</time>
      </trkpt>
      <trkpt lat="49.92838" lon="2.22046">
        <ele>15.9</ele>
        <time>2012-11-25T12:27:43Z</time>
      </trkpt>
      <trkpt lat="49.92852" lon="2.22069">
        <ele>16</ele>
        <time>2012-11-25T12:27:55Z</time>
      </trkpt>
      <trkpt lat="49.92866" lon="2.22076">
        <ele>0.7</ele>
        <time>2012-11-25T12:28:07Z</time>
      </trkpt>
      <trkpt lat="49.92881" lon="2.22089">
        <ele>1.9</ele>
        <time>2012-11-25T12:28:22Z</time>
      </trkpt>
      <trkpt lat="49.92897" lon="2.22111">
        <ele>2.6</ele>
        <time>2012-11-25T12:28:30Z</time>
      </trkpt>
      <trkpt lat="49.92904" lon="2.22132">
        <ele>2.9</ele>
        <time>2012-11-25T12:28:34Z</time>
      </trkpt>
      <trkpt lat="49.92904" lon="2.22154">
        <ele>4</ele>
        <time>2012-11-25T12:28:48Z</time>
      </trkpt>
      <trkpt lat="49.92899" lon="2.22177">
        <ele>5.5</ele>
        <time>2012-11-25T12:29:05Z</time>
      </trkpt>
      <trkpt lat="49.92892" lon="2.22196">
        <ele>2</ele>
        <time>2012-11-25T12:29:16Z</time>
      </trkpt>
      <trkpt lat="49.92886" lon="2.22218">
        <ele>4.9</ele>
        <time>2012-11-25T12:29:23Z</time>
      </trkpt>
      <trkpt lat="49.92882" lon="2.2224">
        <ele>2.3</ele>
        <time>2012-11-25T12:29:33Z</time>
      </trkpt>
      <trkpt lat="49.92877" lon="2.22263">
        <ele>2.9</ele>
        <time>2012-11-25T12:29:43Z</time>
      </trkpt>
      <trkpt lat="49.92874" lon="2.22284">
        <ele>3</ele>
        <time>2012-11-25T12:29:52Z</time>
      </trkpt>
      <trkpt lat="49.92871" lon="2.22305">
        <ele>2.4</ele>
        <time>2012-11-25T12:30:03Z</time>
      </trkpt>
      <trkpt lat="49.92867" lon="2.22325">
        <ele>5.1</ele>
        <time>2012-11-25T12:30:12Z</time>
      </trkpt>
      <trkpt lat="49.9286" lon="2.22344">
        <ele>9.1</ele>
        <time>2012-11-25T12:30:22Z</time>
      </trkpt>
      <trkpt lat="49.92853" lon="2.22365">
        <ele>9.6</ele>
        <time>2012-11-25T12:30:38Z</time>
      </trkpt>
      <trkpt lat="49.92847" lon="2.22384">
        <ele>13.5</ele>
        <time>2012-11-25T12:30:46Z</time>
      </trkpt>
      <trkpt lat="49.92842" lon="2.22407">
        <ele>9.6</ele>
        <time>2012-11-25T12:30:59Z</time>
      </trkpt>
      <trkpt lat="49.92839" lon="2.22429">
        <ele>7.4</ele>
        <time>2012-11-25T12:31:11Z</time>
      </trkpt>
      <trkpt lat="49.92835" lon="2.22449">
        <ele>10.3</ele>
        <time>2012-11-25T12:31:22Z</time>
      </trkpt>
      <trkpt lat="49.92829" lon="2.22469">
        <ele>3.3</ele>
        <time>2012-11-25T12:31:35Z</time>
      </trkpt>
      <trkpt lat="49.92815" lon="2.22477">
        <ele>7.1</ele>
        <time>2012-11-25T12:31:45Z</time>
      </trkpt>
      <trkpt lat="49.92801" lon="2.22476">
        <ele>8.9</ele>
        <time>2012-11-25T12:31:55Z</time>
      </trkpt>
      <trkpt lat="49.92787" lon="2.22473">
        <ele>9.3</ele>
        <time>2012-11-25T12:32:05Z</time>
      </trkpt>
      <trkpt lat="49.92774" lon="2.22469">
        <ele>4.4</ele>
        <time>2012-11-25T12:32:16Z</time>
      </trkpt>
      <trkpt lat="49.9276" lon="2.22472">
        <ele>5.9</ele>
        <time>2012-11-25T12:32:30Z</time>
      </trkpt>
      <trkpt lat="49.92748" lon="2.22486">
        <ele>17</ele>
        <time>2012-11-25T12:32:40Z</time>
      </trkpt>
      <trkpt lat="49.92736" lon="2.22499">
        <ele>6.5</ele>
        <time>2012-11-25T12:32:48Z</time>
      </trkpt>
      <trkpt lat="49.92725" lon="2.22513">
        <ele>1.3</ele>
        <time>2012-11-25T12:33:00Z</time>
      </trkpt>
      <trkpt lat="49.92714" lon="2.22528">
        <ele>0.1</ele>
        <time>2012-11-25T12:33:09Z</time>
      </trkpt>
      <trkpt lat="49.92705" lon="2.22546">
        <ele>0.9</ele>
        <time>2012-11-25T12:33:16Z</time>
      </trkpt>
      <trkpt lat="49.92693" lon="2.2256">
        <ele>2</ele>
        <time>2012-11-25T12:33:25Z</time>
      </trkpt>
      <trkpt lat="49.92682" lon="2.22575">
        <ele>1.8</ele>
        <time>2012-11-25T12:33:38Z</time>
      </trkpt>
      <trkpt lat="49.92674" lon="2.22595">
        <ele>2.6</ele>
        <time>2012-11-25T12:33:47Z</time>
      </trkpt>
      <trkpt lat="49.92664" lon="2.2261">
        <ele>4.6</ele>
        <time>2012-11-25T12:33:55Z</time>
      </trkpt>
      <trkpt lat="49.92656" lon="2.2263">
        <ele>6.9</ele>
        <time>2012-11-25T12:34:04Z</time>
      </trkpt>
      <trkpt lat="49.92647" lon="2.22649">
        <ele>13</ele>
        <time>2012-11-25T12:34:15Z</time>
      </trkpt>
      <trkpt lat="49.92643" lon="2.2267">
        <ele>19.4</ele>
        <time>2012-11-25T12:34:27Z</time>
      </trkpt>
      <trkpt lat="49.92637" lon="2.2269">
        <ele>15.8</ele>
        <time>2012-11-25T12:34:37Z</time>
      </trkpt>
      <trkpt lat="49.92632" lon="2.22713">
        <ele>18.1</ele>
        <time>2012-11-25T12:34:49Z</time>
      </trkpt>
      <trkpt lat="49.92625" lon="2.22737">
        <ele>20.1</ele>
        <time>2012-11-25T12:34:59Z</time>
      </trkpt>
      <trkpt lat="49.92618" lon="2.22756">
        <ele>19.2</ele>
        <time>2012-11-25T12:35:09Z</time>
      </trkpt>
      <trkpt lat="49.92608" lon="2.22776">
        <ele>17.3</ele>
        <time>2012-11-25T12:35:18Z</time>
      </trkpt>
      <trkpt lat="49.92601" lon="2.22796">
        <ele>18.9</ele>
        <time>2012-11-25T12:35:30Z</time>
      </trkpt>
      <trkpt lat="49.92593" lon="2.22815">
        <ele>18</ele>
        <time>2012-11-25T12:35:40Z</time>
      </trkpt>
      <trkpt lat="49.92584" lon="2.22834">
        <ele>15.3</ele>
        <time>2012-11-25T12:35:51Z</time>
      </trkpt>
      <trkpt lat="49.92578" lon="2.22853">
        <ele>10.2</ele>
        <time>2012-11-25T12:36:08Z</time>
      </trkpt>
      <trkpt lat="49.92567" lon="2.22874">
        <ele>9.9</ele>
        <time>2012-11-25T12:36:20Z</time>
      </trkpt>
      <trkpt lat="49.92559" lon="2.2289">
        <ele>11.4</ele>
        <time>2012-11-25T12:36:32Z</time>
      </trkpt>
      <trkpt lat="49.9255" lon="2.22908">
        <ele>10.8</ele>
        <time>2012-11-25T12:36:46Z</time>
      </trkpt>
      <trkpt lat="49.92535" lon="2.2292">
        <ele>3.8</ele>
        <time>2012-11-25T12:36:59Z</time>
      </trkpt>
      <trkpt lat="49.92521" lon="2.22916">
        <ele>3.9</ele>
        <time>2012-11-25T12:37:08Z</time>
      </trkpt>
      <trkpt lat="49.92502" lon="2.22905">
        <ele>9.5</ele>
        <time>2012-11-25T12:39:34Z</time>
      </trkpt>
      <trkpt lat="49.92502" lon="2.22905">
        <ele>9.5</ele>
        <time>2012-11-25T12:43:05Z</time>
      </trkpt>
      <trkpt lat="49.92496" lon="2.22898">
        <ele>11.4</ele>
        <time>2012-11-25T12:43:09Z</time>
      </trkpt>
      <trkpt lat="49.9248" lon="2.22889">
        <ele>12.6</ele>
        <time>2012-11-25T12:43:19Z</time>
      </trkpt>
      <trkpt lat="49.92467" lon="2.22881">
        <ele>12</ele>
        <time>2012-11-25T12:43:36Z</time>
      </trkpt>
      <trkpt lat="49.92454" lon="2.22873">
        <ele>11.1</ele>
        <time>2012-11-25T12:43:48Z</time>
      </trkpt>
      <trkpt lat="49.92442" lon="2.22864">
        <ele>10.2</ele>
        <time>2012-11-25T12:43:58Z</time>
      </trkpt>
      <trkpt lat="49.92426" lon="2.22859">
        <ele>6.7</ele>
        <time>2012-11-25T12:44:07Z</time>
      </trkpt>
      <trkpt lat="49.9241" lon="2.22848">
        <ele>10.2</ele>
        <time>2012-11-25T12:44:17Z</time>
      </trkpt>
      <trkpt lat="49.92397" lon="2.22843">
        <ele>11</ele>
        <time>2012-11-25T12:44:27Z</time>
      </trkpt>
      <trkpt lat="49.9239" lon="2.22863">
        <ele>12</ele>
        <time>2012-11-25T12:44:39Z</time>
      </trkpt>
      <trkpt lat="49.92385" lon="2.22885">
        <ele>12.6</ele>
        <time>2012-11-25T12:44:47Z</time>
      </trkpt>
      <trkpt lat="49.92382" lon="2.22907">
        <ele>13.4</ele>
        <time>2012-11-25T12:44:56Z</time>
      </trkpt>
      <trkpt lat="49.92378" lon="2.22928">
        <ele>12.8</ele>
        <time>2012-11-25T12:45:10Z</time>
      </trkpt>
      <trkpt lat="49.92368" lon="2.22944">
        <ele>15.2</ele>
        <time>2012-11-25T12:45:19Z</time>
      </trkpt>
      <trkpt lat="49.92363" lon="2.22966">
        <ele>19.7</ele>
        <time>2012-11-25T12:45:29Z</time>
      </trkpt>
      <trkpt lat="49.92352" lon="2.22979">
        <ele>21.9</ele>
        <time>2012-11-25T12:45:39Z</time>
      </trkpt>
      <trkpt lat="49.92336" lon="2.22971">
        <ele>13.2</ele>
        <time>2012-11-25T12:45:50Z</time>
      </trkpt>
      <trkpt lat="49.92318" lon="2.22965">
        <ele>11.5</ele>
        <time>2012-11-25T12:46:04Z</time>
      </trkpt>
      <trkpt lat="49.92304" lon="2.22959">
        <ele>11.6</ele>
        <time>2012-11-25T12:46:16Z</time>
      </trkpt>
      <trkpt lat="49.9229" lon="2.22958">
        <ele>11.8</ele>
        <time>2012-11-25T12:46:25Z</time>
      </trkpt>
      <trkpt lat="49.92277" lon="2.22954">
        <ele>10.3</ele>
        <time>2012-11-25T12:46:35Z</time>
      </trkpt>
      <trkpt lat="49.92259" lon="2.22947">
        <ele>3.2</ele>
        <time>2012-11-25T12:46:50Z</time>
      </trkpt>
      <trkpt lat="49.92245" lon="2.22945">
        <ele>5.5</ele>
        <time>2012-11-25T12:47:00Z</time>
      </trkpt>
      <trkpt lat="49.92231" lon="2.22944">
        <ele>3.4</ele>
        <time>2012-11-25T12:47:09Z</time>
      </trkpt>
      <trkpt lat="49.92216" lon="2.22942">
        <ele>11.1</ele>
        <time>2012-11-25T12:47:17Z</time>
      </trkpt>
      <trkpt lat="49.92202" lon="2.22941">
        <ele>7.9</ele>
        <time>2012-11-25T12:47:25Z</time>
      </trkpt>
      <trkpt lat="49.92188" lon="2.22939">
        <ele>8.5</ele>
        <time>2012-11-25T12:47:32Z</time>
      </trkpt>
      <trkpt lat="49.92174" lon="2.22934">
        <ele>7.6</ele>
        <time>2012-11-25T12:47:45Z</time>
      </trkpt>
      <trkpt lat="49.92157" lon="2.2293">
        <ele>5.6</ele>
        <time>2012-11-25T12:47:57Z</time>
      </trkpt>
      <trkpt lat="49.92141" lon="2.22922">
        <ele>7.7</ele>
        <time>2012-11-25T12:48:10Z</time>
      </trkpt>
      <trkpt lat="49.92127" lon="2.22922">
        <ele>8.5</ele>
        <time>2012-11-25T12:48:21Z</time>
      </trkpt>
      <trkpt lat="49.92113" lon="2.22921">
        <ele>7.5</ele>
        <time>2012-11-25T12:48:32Z</time>
      </trkpt>
      <trkpt lat="49.921" lon="2.22917">
        <ele>7</ele>
        <time>2012-11-25T12:48:42Z</time>
      </trkpt>
      <trkpt lat="49.92084" lon="2.22913">
        <ele>10.3</ele>
        <time>2012-11-25T12:48:52Z</time>
      </trkpt>
      <trkpt lat="49.92067" lon="2.22913">
        <ele>13.8</ele>
        <time>2012-11-25T12:49:00Z</time>
      </trkpt>
      <trkpt lat="49.92052" lon="2.22913">
        <ele>18.8</ele>
        <time>2012-11-25T12:49:14Z</time>
      </trkpt>
      <trkpt lat="49.92039" lon="2.22907">
        <ele>11.4</ele>
        <time>2012-11-25T12:49:24Z</time>
      </trkpt>
      <trkpt lat="49.92026" lon="2.229">
        <ele>8.1</ele>
        <time>2012-11-25T12:49:36Z</time>
      </trkpt>
      <trkpt lat="49.92009" lon="2.22895">
        <ele>10.5</ele>
        <time>2012-11-25T12:49:47Z</time>
      </trkpt>
      <trkpt lat="49.91995" lon="2.22896">
        <ele>8.6</ele>
        <time>2012-11-25T12:49:57Z</time>
      </trkpt>
      <trkpt lat="49.9198" lon="2.22892">
        <ele>8.9</ele>
        <time>2012-11-25T12:50:07Z</time>
      </trkpt>
      <trkpt lat="49.91966" lon="2.22889">
        <ele>7</ele>
        <time>2012-11-25T12:50:17Z</time>
      </trkpt>
      <trkpt lat="49.91952" lon="2.22883">
        <ele>10.6</ele>
        <time>2012-11-25T12:50:28Z</time>
      </trkpt>
      <trkpt lat="49.91937" lon="2.22882">
        <ele>12</ele>
        <time>2012-11-25T12:50:39Z</time>
      </trkpt>
      <trkpt lat="49.91923" lon="2.22883">
        <ele>12.7</ele>
        <time>2012-11-25T12:50:49Z</time>
      </trkpt>
      <trkpt lat="49.91908" lon="2.22879">
        <ele>7.3</ele>
        <time>2012-11-25T12:51:00Z</time>
      </trkpt>
      <trkpt lat="49.91894" lon="2.22877">
        <ele>11.3</ele>
        <time>2012-11-25T12:51:11Z</time>
      </trkpt>
      <trkpt lat="49.91881" lon="2.22871">
        <ele>12.7</ele>
        <time>2012-11-25T12:51:21Z</time>
      </trkpt>
      <trkpt lat="49.91869" lon="2.22871">
        <ele>14.4</ele>
        <time>2012-11-25T12:51:33Z</time>
      </trkpt>
      <trkpt lat="49.91864" lon="2.22896">
        <ele>16.1</ele>
        <time>2012-11-25T12:51:45Z</time>
      </trkpt>
      <trkpt lat="49.9186" lon="2.22917">
        <ele>19.5</ele>
        <time>2012-11-25T12:51:57Z</time>
      </trkpt>
      <trkpt lat="49.91851" lon="2.22934">
        <ele>15.7</ele>
        <time>2012-11-25T12:52:09Z</time>
      </trkpt>
      <trkpt lat="49.91837" lon="2.22929">
        <ele>10.8</ele>
        <time>2012-11-25T12:52:20Z</time>
      </trkpt>
      <trkpt lat="49.91823" lon="2.22924">
        <ele>11.2</ele>
        <time>2012-11-25T12:52:29Z</time>
      </trkpt>
      <trkpt lat="49.91808" lon="2.22921">
        <ele>12.4</ele>
        <time>2012-11-25T12:52:39Z</time>
      </trkpt>
      <trkpt lat="49.91795" lon="2.22927">
        <ele>11.3</ele>
        <time>2012-11-25T12:52:49Z</time>
      </trkpt>
      <trkpt lat="49.91783" lon="2.2294">
        <ele>15.8</ele>
        <time>2012-11-25T12:53:00Z</time>
      </trkpt>
      <trkpt lat="49.91767" lon="2.22954">
        <ele>19.6</ele>
        <time>2012-11-25T12:53:10Z</time>
      </trkpt>
      <trkpt lat="49.91757" lon="2.22969">
        <ele>11.7</ele>
        <time>2012-11-25T12:53:27Z</time>
      </trkpt>
      <trkpt lat="49.91746" lon="2.22982">
        <ele>9</ele>
        <time>2012-11-25T12:53:37Z</time>
      </trkpt>
      <trkpt lat="49.91734" lon="2.22996">
        <ele>14.1</ele>
        <time>2012-11-25T12:53:49Z</time>
      </trkpt>
      <trkpt lat="49.91723" lon="2.23009">
        <ele>17.7</ele>
        <time>2012-11-25T12:53:58Z</time>
      </trkpt>
      <trkpt lat="49.91708" lon="2.23006">
        <ele>16.1</ele>
        <time>2012-11-25T12:54:08Z</time>
      </trkpt>
      <trkpt lat="49.91695" lon="2.23011">
        <ele>17.7</ele>
        <time>2012-11-25T12:54:18Z</time>
      </trkpt>
      <trkpt lat="49.91681" lon="2.23004">
        <ele>18.3</ele>
        <time>2012-11-25T12:54:29Z</time>
      </trkpt>
      <trkpt lat="49.91668" lon="2.22994">
        <ele>18.6</ele>
        <time>2012-11-25T12:54:39Z</time>
      </trkpt>
      <trkpt lat="49.91654" lon="2.22986">
        <ele>17.1</ele>
        <time>2012-11-25T12:54:52Z</time>
      </trkpt>
      <trkpt lat="49.91641" lon="2.22979">
        <ele>16</ele>
        <time>2012-11-25T12:55:02Z</time>
      </trkpt>
      <trkpt lat="49.91626" lon="2.22967">
        <ele>15</ele>
        <time>2012-11-25T12:55:13Z</time>
      </trkpt>
      <trkpt lat="49.91612" lon="2.22965">
        <ele>13.8</ele>
        <time>2012-11-25T12:55:26Z</time>
      </trkpt>
      <trkpt lat="49.91598" lon="2.22956">
        <ele>12.7</ele>
        <time>2012-11-25T12:55:36Z</time>
      </trkpt>
      <trkpt lat="49.91585" lon="2.22946">
        <ele>14.7</ele>
        <time>2012-11-25T12:55:46Z</time>
      </trkpt>
      <trkpt lat="49.91571" lon="2.2294">
        <ele>17.5</ele>
        <time>2012-11-25T12:55:56Z</time>
      </trkpt>
      <trkpt lat="49.91556" lon="2.2294">
        <ele>25.4</ele>
        <time>2012-11-25T12:56:12Z</time>
      </trkpt>
      <trkpt lat="49.91546" lon="2.22956">
        <ele>29.8</ele>
        <time>2012-11-25T12:56:20Z</time>
      </trkpt>
      <trkpt lat="49.91538" lon="2.22978">
        <ele>27.1</ele>
        <time>2012-11-25T12:56:28Z</time>
      </trkpt>
      <trkpt lat="49.91529" lon="2.22998">
        <ele>22.8</ele>
        <time>2012-11-25T12:56:39Z</time>
      </trkpt>
      <trkpt lat="49.91521" lon="2.23017">
        <ele>12.5</ele>
        <time>2012-11-25T12:56:50Z</time>
      </trkpt>
      <trkpt lat="49.91512" lon="2.23035">
        <ele>3.8</ele>
        <time>2012-11-25T12:57:03Z</time>
      </trkpt>
      <trkpt lat="49.91505" lon="2.23054">
        <ele>5.4</ele>
        <time>2012-11-25T12:57:14Z</time>
      </trkpt>
      <trkpt lat="49.91503" lon="2.23077">
        <ele>8.8</ele>
        <time>2012-11-25T12:57:23Z</time>
      </trkpt>
      <trkpt lat="49.91498" lon="2.23098">
        <ele>11.5</ele>
        <time>2012-11-25T12:57:33Z</time>
      </trkpt>
      <trkpt lat="49.91491" lon="2.23118">
        <ele>13.8</ele>
        <time>2012-11-25T12:57:42Z</time>
      </trkpt>
      <trkpt lat="49.91485" lon="2.23137">
        <ele>13.2</ele>
        <time>2012-11-25T12:57:51Z</time>
      </trkpt>
      <trkpt lat="49.9148" lon="2.23155">
        <ele>20.6</ele>
        <time>2012-11-25T12:58:00Z</time>
      </trkpt>
      <trkpt lat="49.91479" lon="2.23177">
        <ele>17.4</ele>
        <time>2012-11-25T12:58:07Z</time>
      </trkpt>
      <trkpt lat="49.91476" lon="2.23198">
        <ele>22.7</ele>
        <time>2012-11-25T12:58:15Z</time>
      </trkpt>
      <trkpt lat="49.91471" lon="2.23222">
        <ele>25.3</ele>
        <time>2012-11-25T12:58:28Z</time>
      </trkpt>
      <trkpt lat="49.91464" lon="2.23241">
        <ele>26.8</ele>
        <time>2012-11-25T12:58:36Z</time>
      </trkpt>
      <trkpt lat="49.91456" lon="2.23259">
        <ele>25.3</ele>
        <time>2012-11-25T12:58:48Z</time>
      </trkpt>
      <trkpt lat="49.91442" lon="2.23256">
        <ele>22.9</ele>
        <time>2012-11-25T12:58:58Z</time>
      </trkpt>
      <trkpt lat="49.9143" lon="2.23245">
        <ele>21.8</ele>
        <time>2012-11-25T12:59:07Z</time>
      </trkpt>
      <trkpt lat="49.91417" lon="2.23234">
        <ele>23.4</ele>
        <time>2012-11-25T12:59:17Z</time>
      </trkpt>
      <trkpt lat="49.91404" lon="2.23224">
        <ele>20</ele>
        <time>2012-11-25T12:59:26Z</time>
      </trkpt>
      <trkpt lat="49.914" lon="2.23203">
        <ele>19</ele>
        <time>2012-11-25T12:59:39Z</time>
      </trkpt>
      <trkpt lat="49.91389" lon="2.23189">
        <ele>19</ele>
        <time>2012-11-25T12:59:51Z</time>
      </trkpt>
      <trkpt lat="49.91376" lon="2.23182">
        <ele>22</ele>
        <time>2012-11-25T13:00:03Z</time>
      </trkpt>
      <trkpt lat="49.91363" lon="2.23175">
        <ele>22.9</ele>
        <time>2012-11-25T13:00:15Z</time>
      </trkpt>
      <trkpt lat="49.91349" lon="2.23169">
        <ele>24</ele>
        <time>2012-11-25T13:00:25Z</time>
      </trkpt>
      <trkpt lat="49.91336" lon="2.23159">
        <ele>25</ele>
        <time>2012-11-25T13:00:34Z</time>
      </trkpt>
      <trkpt lat="49.91328" lon="2.23141">
        <ele>26.4</ele>
        <time>2012-11-25T13:00:46Z</time>
      </trkpt>
      <trkpt lat="49.91328" lon="2.2312">
        <ele>29</ele>
        <time>2012-11-25T13:00:57Z</time>
      </trkpt>
      <trkpt lat="49.91328" lon="2.23099">
        <ele>31.6</ele>
        <time>2012-11-25T13:01:06Z</time>
      </trkpt>
      <trkpt lat="49.91327" lon="2.23074">
        <ele>31.5</ele>
        <time>2012-11-25T13:01:17Z</time>
      </trkpt>
      <trkpt lat="49.91328" lon="2.2305">
        <ele>31.4</ele>
        <time>2012-11-25T13:01:29Z</time>
      </trkpt>
      <trkpt lat="49.91328" lon="2.23028">
        <ele>32</ele>
        <time>2012-11-25T13:01:39Z</time>
      </trkpt>
      <trkpt lat="49.91327" lon="2.23006">
        <ele>34.7</ele>
        <time>2012-11-25T13:01:51Z</time>
      </trkpt>
      <trkpt lat="49.91328" lon="2.22984">
        <ele>37.5</ele>
        <time>2012-11-25T13:02:01Z</time>
      </trkpt>
      <trkpt lat="49.91329" lon="2.22961">
        <ele>35.2</ele>
        <time>2012-11-25T13:02:12Z</time>
      </trkpt>
      <trkpt lat="49.91329" lon="2.22953">
        <ele>35.2</ele>
        <time>2012-11-25T13:02:16Z</time>
      </trkpt>
    </trkseg>
  </trk>
</gpx>